Another Hard Day at the Office Weather Stats

 
 
 

High monthly outside Temperature, 22.8 , C
Low monthly outside Temperature, -1.0 , C
High yearly outside Temperature, 30.9 , C
Low yearly outside Temperature, -2.2 , C

Low monthly barometer, 1001.1 , mb
High monthly barometer, 1028.0 , mb
Low yearly barometer, 975.0 , mb
High yearly barometer 1041.1 , mb

High wind speed, 25.0 , mph
Time of High wind speed, 21:37 , mph
High monthly wind speed, 47.0 , mph
High yearly wind speed, 55.0 , mph

 

 




3126
                    Temp     Hi    Low   Out    Dew  Wind  Wind   Wind    Hi    Hi   Wind   Heat    THW                Rain    Heat    Cool    In     In    In     In     In   In Air  Wind  Wind    ISS   Arc.
  Date    Time     Out   Temp   Temp   Hum    Pt. Speed   Dir    Run Speed   Dir  Chill  Index  Index   Bar    Rain  Rate    D-D     D-D    Temp   Hum    Dew   Heat    EMC Density  Samp   Tx   Recept  Int.
---------------------------------------------------------------------------------------------------------------------------------------------------------------------------------------------------------------
25/09/17   0:05   16.3   16.3   16.3    93   15.1   5.0     E   0.42   9.0     E   16.3   16.6   16.6  1017.5  0.00  0.00   0.007   0.000   24.8    57   15.7   25.1  10.28  .0730    116    1    100.0    5 
25/09/17   0:10   16.2   16.3   16.2    93   15.1   6.0     E   0.50  10.0     E   16.1   16.5   16.4  1017.4  0.00  0.00   0.007   0.000   24.8    57   15.7   25.1  10.29  .0730    115    1    100.0    5 
25/09/17   0:15   16.2   16.2   16.2    93   15.0   6.0     E   0.50  10.0     E   16.1   16.4   16.3  1017.2  0.00  0.00   0.008   0.000   24.8    57   15.7   25.1  10.29  .0730    116    1    100.0    5 
25/09/17   0:20   16.1   16.2   16.1    93   15.0   7.0     E   0.58  10.0     E   15.8   16.4   16.1  1017.3  0.00  0.00   0.008   0.000   24.8    57   15.7   25.1  10.29  .0730    116    1    100.0    5 
25/09/17   0:25   16.1   16.1   16.1    93   15.0   7.0     E   0.58  11.0     E   15.8   16.4   16.1  1017.2  0.00  0.00   0.008   0.000   24.8    57   15.7   25.1  10.29  .0730    116    1    100.0    5 
25/09/17   0:30   16.1   16.1   16.1    93   15.0   6.0     E   0.50  10.0     E   16.0   16.4   16.3  1017.2  0.00  0.00   0.008   0.000   24.8    57   15.7   25.1  10.29  .0730    117    1    100.0    5 
25/09/17   0:35   16.1   16.1   16.1    93   15.0   6.0     E   0.50  10.0     E   16.0   16.4   16.3  1017.1  0.00  0.00   0.008   0.000   24.7    57   15.6   25.0  10.29  .0730    117    1    100.0    5 
25/09/17   0:40   16.1   16.1   16.1    93   14.9   7.0     E   0.58  12.0     E   15.7   16.3   16.0  1017.1  0.00  0.00   0.008   0.000   24.7    57   15.6   25.0  10.29  .0730    115    1    100.0    5 
25/09/17   0:45   16.1   16.1   16.1    93   14.9   8.0     E   0.67  13.0     E   15.3   16.3   15.6  1017.0  0.00  0.00   0.008   0.000   24.7    57   15.6   25.0  10.29  .0730    116    1    100.0    5 
25/09/17   0:50   16.1   16.1   16.1    93   15.0   8.0     E   0.67  11.0     E   15.4   16.4   15.7  1017.1  0.00  0.00   0.008   0.000   24.7    57   15.6   24.9  10.29  .0730    117    1    100.0    5 
25/09/17   0:55   16.1   16.1   16.1    93   15.0   7.0     E   0.58  10.0   ESE   15.8   16.4   16.1  1017.0  0.00  0.00   0.008   0.000   24.7    57   15.6   24.9  10.29  .0730    116    1    100.0    5 
25/09/17   1:00   16.2   16.2   16.1    93   15.0   7.0     E   0.58   9.0     E   15.8   16.4   16.1  1016.9  0.00  0.00   0.008   0.000   24.7    57   15.6   24.9  10.29  .0730    115    1    100.0    5 
25/09/17   1:05   16.2   16.2   16.1    93   15.0   5.0     E   0.42   9.0     E   16.2   16.4   16.4  1016.8  0.00  0.00   0.008   0.000   24.7    57   15.6   24.9  10.29  .0730    117    1    100.0    5 
25/09/17   1:10   16.2   16.2   16.1    93   15.0   5.0   ENE   0.42   8.0   ENE   16.2   16.4   16.4  1016.9  0.00  0.00   0.008   0.000   24.7    57   15.6   24.9  10.29  .0730    117    1    100.0    5 
25/09/17   1:15   16.1   16.2   16.1    93   15.0   3.0   ENE   0.25   8.0     E   16.1   16.4   16.4  1016.8  0.00  0.00   0.008   0.000   24.6    57   15.5   24.9  10.30  .0730    117    1    100.0    5 
25/09/17   1:20   16.1   16.1   16.1    93   15.0   5.0   ENE   0.42   9.0     E   16.1   16.4   16.4  1016.8  0.00  0.00   0.008   0.000   24.6    57   15.5   24.9  10.30  .0730    117    1    100.0    5 
25/09/17   1:25   16.1   16.1   16.1    93   15.0   3.0   ENE   0.25   8.0   ENE   16.1   16.4   16.4  1016.8  0.00  0.00   0.008   0.000   24.6    57   15.5   24.9  10.30  .0730    117    1    100.0    5 
25/09/17   1:30   16.1   16.1   16.1    93   15.0   3.0   ENE   0.25   8.0   ENE   16.1   16.4   16.4  1016.8  0.00  0.00   0.008   0.000   24.6    57   15.5   24.9  10.30  .0730    116    1    100.0    5 
25/09/17   1:35   16.1   16.1   16.1    93   15.0   4.0     E   0.33   8.0     E   16.1   16.4   16.4  1016.7  0.00  0.00   0.008   0.000   24.6    57   15.5   24.8  10.30  .0730    117    1    100.0    5 
25/09/17   1:40   16.2   16.2   16.1    93   15.0   5.0     E   0.42  10.0     E   16.2   16.4   16.4  1016.7  0.00  0.00   0.008   0.000   24.6    57   15.5   24.8  10.30  .0730    116    1    100.0    5 
25/09/17   1:45   16.2   16.2   16.2    93   15.0   4.0   ENE   0.33   8.0   ENE   16.2   16.4   16.4  1016.8  0.00  0.00   0.008   0.000   24.6    57   15.5   24.8  10.30  .0730    117    1    100.0    5 
25/09/17   1:50   16.2   16.2   16.2    93   15.0   4.0   ENE   0.33   7.0   ENE   16.2   16.4   16.4  1016.8  0.00  0.00   0.008   0.000   24.5    57   15.4   24.8  10.31  .0731    117    1    100.0    5 
25/09/17   1:55   16.2   16.2   16.2    93   15.0   5.0     E   0.42   9.0     E   16.2   16.4   16.4  1016.8  0.00  0.00   0.008   0.000   24.6    57   15.5   24.8  10.30  .0730    118    1    100.0    5 
25/09/17   2:00   16.2   16.2   16.2    93   15.0   7.0     E   0.58  11.0     E   15.8   16.4   16.1  1016.7  0.00  0.00   0.008   0.000   24.5    57   15.4   24.8  10.31  .0730    115    1    100.0    5 
25/09/17   2:05   16.2   16.2   16.1    93   15.0   6.0   ENE   0.50  11.0     E   16.1   16.4   16.3  1016.6  0.00  0.00   0.008   0.000   24.5    57   15.4   24.8  10.31  .0730    116    1    100.0    5 
25/09/17   2:10   16.1   16.2   16.1    93   15.0   6.0     E   0.50  11.0     E   16.0   16.4   16.3  1016.6  0.00  0.00   0.008   0.000   24.5    57   15.4   24.8  10.31  .0730    117    1    100.0    5 
25/09/17   2:15   16.1   16.1   16.1    93   14.9   6.0     E   0.50  10.0     E   15.9   16.3   16.2  1016.6  0.00  0.00   0.008   0.000   24.5    57   15.4   24.8  10.31  .0730    117    1    100.0    5 
25/09/17   2:20   16.1   16.1   16.1    93   14.9   7.0     E   0.58  14.0     E   15.7   16.3   16.0  1016.7  0.00  0.00   0.008   0.000   24.4    57   15.4   24.7  10.31  .0731    115    1    100.0    5 
25/09/17   2:25   15.9   16.1   15.9    93   14.8   8.0     E   0.67  14.0     E   15.2   16.2   15.4  1016.7  0.00  0.00   0.008   0.000   24.4    57   15.4   24.7  10.31  .0731    117    1    100.0    5 
25/09/17   2:30   15.9   15.9   15.9    93   14.8   8.0     E   0.67  11.0   ENE   15.2   16.2   15.4  1016.7  0.00  0.00   0.008   0.000   24.4    57   15.4   24.7  10.31  .0731    114    1    100.0    5 
25/09/17   2:35   15.9   15.9   15.9    93   14.8   7.0     E   0.58  13.0   ENE   15.5   16.1   15.7  1016.7  0.00  0.00   0.008   0.000   24.4    57   15.4   24.7  10.31  .0731    116    1    100.0    5 
25/09/17   2:40   15.9   15.9   15.9    93   14.8   8.0     E   0.67  13.0     E   15.2   16.2   15.4  1016.7  0.00  0.00   0.008   0.000   24.4    57   15.3   24.7  10.31  .0731    116    1    100.0    5 
25/09/17   2:45   15.9   15.9   15.9    93   14.8   7.0     E   0.58  13.0     E   15.6   16.2   15.8  1016.7  0.00  0.00   0.008   0.000   24.4    57   15.3   24.7  10.31  .0731    116    1    100.0    5 
25/09/17   2:50   16.0   16.0   15.9    93   14.9   6.0     E   0.50  11.0   ENE   15.9   16.2   16.1  1016.6  0.00  0.00   0.008   0.000   24.4    57   15.3   24.7  10.31  .0731    117    1    100.0    5 
25/09/17   2:55   16.1   16.1   16.0    93   14.9   7.0     E   0.58  11.0   ENE   15.7   16.3   16.0  1016.6  0.00  0.00   0.008   0.000   24.4    57   15.3   24.7  10.31  .0731    117    1    100.0    5 
25/09/17   3:00   16.1   16.1   16.1    93   14.9   7.0   ENE   0.58  13.0   ENE   15.7   16.3   16.0  1016.6  0.00  0.00   0.008   0.000   24.3    57   15.3   24.6  10.32  .0731    116    1    100.0    5 
25/09/17   3:05   16.1   16.1   16.1    93   14.9   6.0   ENE   0.50  10.0     E   15.9   16.3   16.2  1016.6  0.00  0.00   0.008   0.000   24.3    57   15.3   24.6  10.32  .0731    115    1    100.0    5 
25/09/17   3:10   16.1   16.1   16.1    93   14.9   6.0   ENE   0.50   9.0   ENE   15.9   16.3   16.2  1016.6  0.00  0.00   0.008   0.000   24.3    57   15.3   24.6  10.32  .0731    117    1    100.0    5 
25/09/17   3:15   16.1   16.1   16.1    93   14.9   4.0   ENE   0.33   8.0     E   16.1   16.3   16.3  1016.6  0.00  0.00   0.008   0.000   24.3    57   15.3   24.6  10.32  .0731    116    1    100.0    5 
25/09/17   3:20   16.1   16.1   16.1    93   14.9   5.0   ENE   0.42   9.0     E   16.1   16.3   16.3  1016.6  0.00  0.00   0.008   0.000   24.3    57   15.3   24.6  10.32  .0731    116    1    100.0    5 
25/09/17   3:25   16.1   16.1   16.1    93   14.9   5.0     E   0.42   9.0     E   16.1   16.3   16.3  1016.6  0.00  0.00   0.008   0.000   24.3    57   15.2   24.6  10.32  .0731    117    1    100.0    5 
25/09/17   3:30   16.1   16.1   16.1    93   15.0   5.0     E   0.42   9.0     E   16.1   16.4   16.4  1016.6  0.00  0.00   0.008   0.000   24.3    57   15.2   24.6  10.32  .0731    116    1    100.0    5 
25/09/17   3:35   16.2   16.2   16.1    93   15.0   5.0     E   0.42  10.0   ESE   16.2   16.4   16.4  1016.5  0.01  0.00   0.008   0.000   24.3    57   15.2   24.6  10.32  .0731    116    1    100.0    5 
25/09/17   3:40   16.2   16.2   16.1    93   15.0   4.0     E   0.33   8.0     E   16.2   16.4   16.4  1016.5  0.00  0.00   0.008   0.000   24.3    57   15.2   24.6  10.32  .0731    117    1    100.0    5 
25/09/17   3:45   16.1   16.2   16.1    93   15.0   6.0     E   0.50   9.0   ENE   16.0   16.4   16.3  1016.5  0.00  0.00   0.008   0.000   24.2    57   15.2   24.5  10.33  .0731    116    1    100.0    5 
25/09/17   3:50   16.1   16.1   16.1    93   14.9   4.0     E   0.33   8.0     E   16.1   16.3   16.3  1016.4  0.00  0.00   0.008   0.000   24.2    57   15.2   24.5  10.33  .0731    117    1    100.0    5 
25/09/17   3:55   16.1   16.1   16.1    93   14.9   5.0     E   0.42   9.0     E   16.1   16.3   16.3  1016.4  0.00  0.00   0.008   0.000   24.2    57   15.2   24.5  10.33  .0731    116    1    100.0    5 
25/09/17   4:00   16.0   16.1   16.0    93   14.9   4.0   ENE   0.33   8.0     E   16.0   16.2   16.2  1016.4  0.01  0.00   0.008   0.000   24.2    57   15.1   24.5  10.33  .0731    118    1    100.0    5 
25/09/17   4:05   15.9   16.0   15.9    93   14.8   3.0   ENE   0.25   8.0   ENE   15.9   16.2   16.2  1016.3  0.00  0.08   0.008   0.000   24.2    57   15.1   24.5  10.33  .0731    117    1    100.0    5 
25/09/17   4:10   15.8   15.9   15.8    93   14.7   4.0    NE   0.33   8.0    NE   15.8   16.1   16.1  1016.2  0.01  0.08   0.009   0.000   24.2    57   15.1   24.5  10.33  .0731    117    1    100.0    5 
25/09/17   4:15   15.8   15.8   15.8    93   14.6   4.0   ENE   0.33   9.0   ENE   15.8   16.0   16.0  1016.2  0.00  0.06   0.009   0.000   24.2    57   15.1   24.5  10.33  .0731    117    1    100.0    5 
25/09/17   4:20   15.7   15.8   15.7    93   14.6   3.0   ENE   0.25   9.0   ENE   15.7   15.9   15.9  1016.1  0.00  0.04   0.009   0.000   24.2    57   15.1   24.5  10.33  .0731    117    1    100.0    5 
25/09/17   4:25   15.7   15.7   15.7    93   14.5   2.0   ENE   0.17   8.0   ENE   15.7   15.9   15.9  1016.2  0.00  0.00   0.009   0.000   24.2    57   15.1   24.5  10.33  .0731    116    1    100.0    5 
25/09/17   4:30   15.7   15.7   15.7    94   14.7   1.0   ENE   0.08   4.0   ENE   15.7   15.9   15.9  1016.3  0.00  0.00   0.009   0.000   24.1    57   15.1   24.4  10.33  .0731    116    1    100.0    5 
25/09/17   4:35   15.6   15.7   15.6    94   14.6   1.0   ENE   0.08   3.0   ENE   15.6   15.8   15.8  1016.2  0.00  0.00   0.009   0.000   24.1    57   15.1   24.4  10.33  .0731    117    1    100.0    5 
25/09/17   4:40   15.6   15.6   15.6    94   14.6   1.0   ENE   0.08   4.0   ENE   15.6   15.8   15.8  1016.2  0.00  0.00   0.010   0.000   24.1    57   15.1   24.4  10.33  .0731    117    1    100.0    5 
25/09/17   4:45   15.6   15.6   15.6    94   14.6   0.0   ENE   0.00   2.0   ENE   15.6   15.8   15.8  1016.2  0.01  0.00   0.010   0.000   24.1    57   15.1   24.4  10.33  .0731    117    1    100.0    5 
25/09/17   4:50   15.6   15.6   15.6    94   14.6   0.0   ENE   0.00   2.0   ENE   15.6   15.8   15.8  1016.2  0.00  0.00   0.010   0.000   24.1    57   15.1   24.4  10.33  .0731    117    1    100.0    5 
25/09/17   4:55   15.5   15.6   15.5    94   14.5   1.0   ENE   0.08   3.0   ENE   15.5   15.7   15.7  1016.2  0.01  0.06   0.010   0.000   24.1    57   15.0   24.4  10.34  .0731    116    1    100.0    5 
25/09/17   5:00   15.6   15.6   15.5    94   14.6   2.0   ENE   0.17   6.0   ENE   15.6   15.8   15.8  1016.2  0.02  0.21   0.010   0.000   24.1    57   15.0   24.4  10.34  .0732    117    1    100.0    5 
25/09/17   5:05   15.6   15.6   15.5    94   14.6   3.0   ENE   0.25   6.0   ENE   15.6   15.8   15.8  1016.2  0.00  0.12   0.010   0.000   24.1    57   15.0   24.4  10.34  .0731    118    1    100.0    5 
25/09/17   5:10   15.5   15.6   15.5    94   14.5   4.0   ESE   0.33   9.0   ESE   15.5   15.7   15.7  1016.2  0.01  0.12   0.010   0.000   24.0    57   15.0   24.3  10.34  .0732    117    1    100.0    5 
25/09/17   5:15   15.5   15.6   15.5    94   14.5   5.0   ESE   0.42  11.0   ESE   15.5   15.7   15.7  1016.2  0.01  0.09   0.010   0.000   24.0    57   15.0   24.3  10.34  .0732    116    1    100.0    5 
25/09/17   5:20   15.7   15.7   15.6    95   14.9  10.0   ESE   0.83  14.0   ESE   14.1   15.9   14.3  1016.2  0.00  0.09   0.009   0.000   24.0    57   15.0   24.3  10.34  .0732    117    1    100.0    5 
25/09/17   5:25   15.9   15.9   15.7    95   15.1  11.0    SE   0.92  14.0   ESE   13.9   16.2   14.2  1016.2  0.00  0.05   0.008   0.000   24.0    57   15.0   24.3  10.34  .0732    115    1    100.0    5 
25/09/17   5:30   16.0   16.0   15.9    95   15.2   9.0   ESE   0.75  13.0    SE   14.8   16.3   15.1  1016.2  0.01  0.05   0.008   0.000   24.0    57   15.0   24.3  10.34  .0732    117    1    100.0    5 
25/09/17   5:35   16.0   16.0   16.0    95   15.2   9.0   ESE   0.75  12.0   ESE   14.8   16.3   15.1  1016.3  0.00  0.05   0.008   0.000   24.0    57   15.0   24.3  10.34  .0732    116    1    100.0    5 
25/09/17   5:40   16.0   16.1   16.0    95   15.2  10.0   ESE   0.83  12.0   ESE   14.4   16.3   14.7  1016.2  0.01  0.05   0.008   0.000   23.9    57   14.9   24.3  10.35  .0732    117    1    100.0    5 
25/09/17   5:45   16.0   16.0   16.0    95   15.2  10.0   ESE   0.83  13.0   ESE   14.4   16.3   14.7  1016.3  0.00  0.05   0.008   0.000   23.9    57   14.9   24.3  10.35  .0732    117    1    100.0    5 
25/09/17   5:50   16.0   16.0   16.0    95   15.2   7.0   ESE   0.58  11.0   ESE   15.7   16.3   15.9  1016.3  0.01  0.06   0.008   0.000   23.9    57   14.9   24.3  10.35  .0732    115    1    100.0    5 
25/09/17   5:55   16.0   16.0   16.0    95   15.2   6.0     E   0.50  10.0     E   15.9   16.3   16.2  1016.3  0.01  0.12   0.008   0.000   23.9    57   14.9   24.3  10.35  .0732    114    1    100.0    5 
25/09/17   6:00   16.0   16.0   16.0    95   15.2   7.0     E   0.58  10.0     E   15.7   16.3   15.9  1016.3  0.02  0.44   0.008   0.000   23.9    57   14.9   24.3  10.35  .0732    116    1    100.0    5 
25/09/17   6:05   16.0   16.0   16.0    95   15.2   6.0     E   0.50   9.0     E   15.9   16.3   16.2  1016.3  0.02  0.31   0.008   0.000   23.9    57   14.9   24.3  10.35  .0732    117    1    100.0    5 
25/09/17   6:10   16.0   16.0   16.0    95   15.2   6.0     E   0.50  10.0     E   15.9   16.3   16.2  1016.3  0.00  0.10   0.008   0.000   23.9    57   14.9   24.3  10.35  .0732    117    1    100.0    5 
25/09/17   6:15   15.9   16.0   15.9    95   15.1   6.0   ENE   0.50  10.0     E   15.8   16.2   16.1  1016.4  0.01  0.10   0.008   0.000   23.8    57   14.8   24.2  10.35  .0732    117    1    100.0    5 
25/09/17   6:20   15.9   15.9   15.9    95   15.1   5.0   ENE   0.42   8.0   ENE   15.9   16.2   16.2  1016.4  0.01  0.10   0.008   0.000   23.8    57   14.8   24.2  10.35  .0732    117    1    100.0    5 
25/09/17   6:25   15.8   15.9   15.8    95   15.0   3.0     E   0.25   6.0     E   15.8   16.1   16.1  1016.5  0.00  0.09   0.009   0.000   23.8    57   14.8   24.2  10.35  .0732    116    1    100.0    5 
25/09/17   6:30   15.8   15.8   15.8    95   15.0   4.0   ENE   0.33   9.0     E   15.8   16.1   16.1  1016.5  0.02  0.17   0.009   0.000   23.8    57   14.8   24.2  10.35  .0732    117    1    100.0    5 
25/09/17   6:35   15.8   15.8   15.8    95   15.0   5.0   ENE   0.42   8.0   ENE   15.8   16.0   16.0  1016.5  0.00  0.09   0.009   0.000   23.8    57   14.7   24.1  10.36  .0733    116    1    100.0    5 
25/09/17   6:40   15.8   15.8   15.8    95   15.0   6.0     E   0.50   8.0     E   15.6   16.0   15.8  1016.6  0.01  0.09   0.009   0.000   23.8    57   14.7   24.1  10.36  .0733    117    1    100.0    5 
25/09/17   6:45   15.8   15.8   15.8    96   15.2   6.0     E   0.50   9.0     E   15.7   16.1   15.9  1016.5  0.00  0.05   0.009   0.000   23.8    57   14.7   24.1  10.36  .0733    117    1    100.0    5 
25/09/17   6:50   15.8   15.8   15.8    96   15.2   6.0     E   0.50  10.0     E   15.7   16.1   15.9  1016.5  0.01  0.07   0.009   0.000   23.8    57   14.7   24.1  10.36  .0733    116    1    100.0    5 
25/09/17   6:55   15.8   15.8   15.8    96   15.2   6.0     E   0.50  13.0     E   15.7   16.1   15.9  1016.6  0.00  0.07   0.009   0.000   23.8    57   14.7   24.1  10.36  .0733    115    1    100.0    5 
25/09/17   7:00   15.8   15.8   15.8    95   15.0   7.0     E   0.58  11.0   ESE   15.4   16.0   15.6  1016.7  0.00  0.05   0.009   0.000   23.7    57   14.7   24.1  10.36  .0733    117    1    100.0    5 
25/09/17   7:05   15.7   15.8   15.7    95   14.9   8.0   ESE   0.67  12.0   ESE   14.8   15.9   15.1  1016.7  0.01  0.05   0.009   0.000   23.7    57   14.7   24.1  10.36  .0733    117    1    100.0    5 
25/09/17   7:10   15.6   15.7   15.6    95   14.8   5.0   ESE   0.42  10.0   ESE   15.6   15.8   15.8  1016.8  0.01  0.09   0.010   0.000   23.7    57   14.7   24.1  10.36  .0733    118    1    100.0    5 
25/09/17   7:15   15.5   15.6   15.5    95   14.7   4.0     E   0.33   8.0     E   15.5   15.7   15.7  1016.8  0.01  0.13   0.010   0.000   23.7    57   14.7   24.1  10.36  .0733    115    1    100.0    5 
25/09/17   7:20   15.4   15.5   15.4    96   14.8   3.0     E   0.25   7.0     E   15.4   15.7   15.7  1016.7  0.01  0.20   0.010   0.000   23.7    57   14.7   24.1  10.36  .0733    116    1    100.0    5 
25/09/17   7:25   15.4   15.4   15.4    96   14.8   3.0   ENE   0.25   6.0   ENE   15.4   15.6   15.6  1016.8  0.00  0.07   0.010   0.000   23.7    57   14.7   24.1  10.36  .0733    117    1    100.0    5 
25/09/17   7:30   15.3   15.4   15.3    95   14.5   4.0   ENE   0.33   7.0   ENE   15.3   15.6   15.6  1016.7  0.01  0.07   0.010   0.000   23.7    57   14.6   24.0  10.37  .0733    117    1    100.0    5 
25/09/17   7:35   15.3   15.3   15.3    95   14.5   4.0   ENE   0.33   8.0   ENE   15.3   15.5   15.5  1016.7  0.00  0.06   0.011   0.000   23.7    57   14.6   24.0  10.37  .0733    117    1    100.0    5 
25/09/17   7:40   15.2   15.3   15.2    95   14.4   4.0   ENE   0.33   8.0   ENE   15.2   15.4   15.4  1016.8  0.00  0.04   0.011   0.000   23.7    57   14.6   24.0  10.37  .0733    117    1    100.0    5 
25/09/17   7:45   15.2   15.2   15.2    96   14.6   4.0   ENE   0.33   8.0   ENE   15.2   15.4   15.4  1016.8  0.00  0.00   0.011   0.000   23.7    57   14.6   24.0  10.37  .0733    116    1    100.0    5 
25/09/17   7:50   15.2   15.2   15.2    96   14.5   3.0   ENE   0.25   7.0   ENE   15.2   15.4   15.4  1016.8  0.00  0.00   0.011   0.000   23.7    57   14.6   24.0  10.37  .0733    117    1    100.0    5 
25/09/17   7:55   15.2   15.2   15.2    96   14.5   3.0   ENE   0.25   7.0   ENE   15.2   15.4   15.4  1016.8  0.00  0.00   0.011   0.000   23.6    57   14.6   23.9  10.37  .0733    117    1    100.0    5 
25/09/17   8:00   15.2   15.2   15.2    96   14.5   3.0   ENE   0.25   6.0   ENE   15.2   15.4   15.4  1016.9  0.00  0.00   0.011   0.000   23.6    57   14.6   23.9  10.37  .0733    114    1    100.0    5 
25/09/17   8:05   15.2   15.2   15.2    96   14.6   2.0   ENE   0.17   6.0   ENE   15.2   15.4   15.4  1016.9  0.00  0.00   0.011   0.000   23.6    57   14.6   23.9  10.37  .0733    117    1    100.0    5 
25/09/17   8:10   15.2   15.2   15.2    96   14.6   1.0   ENE   0.08   3.0   ENE   15.2   15.4   15.4  1016.9  0.01  0.00   0.011   0.000   23.6    57   14.6   23.9  10.37  .0733    117    1    100.0    5 
25/09/17   8:15   15.3   15.3   15.2    96   14.6   2.0   ENE   0.17   5.0   ENE   15.3   15.5   15.5  1016.9  0.00  0.00   0.011   0.000   23.6    57   14.6   23.9  10.37  .0733    117    1    100.0    5 
25/09/17   8:20   15.3   15.3   15.3    96   14.6   1.0   ENE   0.08   5.0   ENE   15.3   15.5   15.5  1016.9  0.00  0.00   0.011   0.000   23.6    57   14.5   23.8  10.37  .0734    117    1    100.0    5 
25/09/17   8:25   15.3   15.3   15.3    96   14.6   1.0   ENE   0.08   3.0   ENE   15.3   15.5   15.5  1017.0  0.00  0.00   0.011   0.000   23.6    57   14.5   23.8  10.37  .0734    116    1    100.0    5 
25/09/17   8:30   15.3   15.3   15.3    96   14.7   0.0   ENE   0.00   2.0   ENE   15.3   15.6   15.6  1017.1  0.00  0.00   0.010   0.000   23.6    57   14.5   23.8  10.37  .0734    116    1    100.0    5 
25/09/17   8:35   15.3   15.3   15.3    96   14.7   0.0   ENE   0.00   2.0   ENE   15.3   15.6   15.6  1017.1  0.00  0.00   0.010   0.000   23.6    57   14.5   23.8  10.37  .0734    116    1    100.0    5 
25/09/17   8:40   15.3   15.3   15.3    96   14.7   1.0   ENE   0.08   3.0   ENE   15.3   15.6   15.6  1017.2  0.01  0.00   0.010   0.000   23.6    58   14.8   23.9  10.57  .0734    115    1    100.0    5 
25/09/17   8:45   15.4   15.4   15.3    96   14.8   2.0   ENE   0.17   6.0   ENE   15.4   15.6   15.6  1017.2  0.00  0.00   0.010   0.000   23.6    58   14.8   23.9  10.57  .0734    117    1    100.0    5 
25/09/17   8:50   15.4   15.4   15.4    96   14.8   1.0   ENE   0.08   5.0   ENE   15.4   15.6   15.6  1017.3  0.01  0.07   0.010   0.000   23.6    58   14.8   23.9  10.57  .0734    116    1    100.0    5 
25/09/17   8:55   15.4   15.4   15.4    96   14.8   1.0   ENE   0.08   2.0   ENE   15.4   15.7   15.7  1017.3  0.00  0.07   0.010   0.000   23.6    58   14.8   23.9  10.57  .0734    116    1    100.0    5 
25/09/17   9:00   15.4   15.4   15.4    96   14.8   2.0   ENE   0.17   5.0   ENE   15.4   15.7   15.7  1017.3  0.00  0.05   0.010   0.000   23.6    58   14.8   23.9  10.57  .0734    116    1    100.0    5 
25/09/17   9:05   15.5   15.5   15.4    96   14.9   2.0   ENE   0.17   7.0   ENE   15.5   15.7   15.7  1017.3  0.01  0.05   0.010   0.000   23.6    58   14.8   23.9  10.57  .0734    117    1    100.0    5 
25/09/17   9:10   15.5   15.5   15.5    96   14.9   2.0   ENE   0.17   4.0   ENE   15.5   15.7   15.7  1017.3  0.01  0.11   0.010   0.000   23.6    58   14.9   23.9  10.57  .0734    117    1    100.0    5 
25/09/17   9:15   15.6   15.6   15.5    96   14.9   1.0   ENE   0.08   3.0   ENE   15.6   15.8   15.8  1017.4  0.00  0.08   0.010   0.000   23.6    58   14.9   23.9  10.57  .0734    116    1    100.0    5 
25/09/17   9:20   15.6   15.6   15.6    96   15.0   1.0   ENE   0.08   5.0   ENE   15.6   15.8   15.8  1017.4  0.00  0.05   0.009   0.000   23.7    58   14.9   24.0  10.57  .0733    117    1    100.0    5 
25/09/17   9:25   15.7   15.7   15.6    96   15.0   1.0   ENE   0.08   4.0   ENE   15.7   15.9   15.9  1017.4  0.00  0.00   0.009   0.000   23.7    58   15.0   24.1  10.56  .0733    117    1    100.0    5 
25/09/17   9:30   15.7   15.7   15.7    96   15.0   0.0     E   0.00   2.0     E   15.7   15.9   15.9  1017.5  0.01  0.00   0.009   0.000   23.7    58   15.0   24.1  10.56  .0733    117    1    100.0    5 
25/09/17   9:35   15.7   15.7   15.7    96   15.1   0.0     E   0.00   1.0     E   15.7   16.0   16.0  1017.6  0.00  0.00   0.009   0.000   23.8    58   15.0   24.2  10.56  .0733    116    1    100.0    5 
25/09/17   9:40   15.7   15.7   15.7    96   15.1   1.0     E   0.08   3.0     E   15.7   16.0   16.0  1017.6  0.00  0.00   0.009   0.000   23.8    58   15.0   24.2  10.56  .0733    117    1    100.0    5 
25/09/17   9:45   15.8   15.8   15.7    96   15.1   1.0     E   0.08   3.0     E   15.8   16.1   16.1  1017.6  0.00  0.00   0.009   0.000   23.8    58   15.1   24.2  10.55  .0733    117    1    100.0    5 
25/09/17   9:50   15.8   15.8   15.8    96   15.2   2.0     E   0.17   5.0     E   15.8   16.1   16.1  1017.6  0.01  0.00   0.009   0.000   23.8    58   15.1   24.2  10.55  .0733    116    1    100.0    5 
25/09/17   9:55   15.9   15.9   15.8    97   15.4   2.0     E   0.17   6.0     E   15.9   16.2   16.2  1017.7  0.00  0.00   0.008   0.000   23.9    58   15.1   24.3  10.55  .0733    116    1    100.0    5 
25/09/17  10:00   15.9   15.9   15.9    97   15.4   2.0   ENE   0.17   6.0   ENE   15.9   16.2   16.2  1017.6  0.00  0.00   0.008   0.000   23.9    58   15.1   24.3  10.55  .0733    116    1    100.0    5 
25/09/17  10:05   15.9   15.9   15.9    97   15.4   1.0   ENE   0.08   5.0   ENE   15.9   16.2   16.2  1017.7  0.00  0.00   0.008   0.000   23.9    58   15.2   24.3  10.55  .0733    117    1    100.0    5 
25/09/17  10:10   15.9   15.9   15.9    97   15.5   0.0   ENE   0.00   2.0   ENE   15.9   16.3   16.3  1017.7  0.00  0.00   0.008   0.000   23.9    58   15.2   24.3  10.55  .0733    115    1    100.0    5 
25/09/17  10:15   16.0   16.0   15.9    97   15.5   0.0   ENE   0.00   1.0   ENE   16.0   16.3   16.3  1017.7  0.00  0.00   0.008   0.000   23.9    58   15.2   24.3  10.55  .0733    116    1    100.0    5 
25/09/17  10:20   16.0   16.0   16.0    97   15.5   3.0   ENE   0.25   6.0   ENE   16.0   16.3   16.3  1017.7  0.00  0.00   0.008   0.000   23.9    58   15.2   24.3  10.55  .0733    118    1    100.0    5 
25/09/17  10:25   16.1   16.1   16.0    97   15.6   2.0   ENE   0.17   5.0   ENE   16.1   16.4   16.4  1017.6  0.00  0.00   0.008   0.000   23.9    58   15.2   24.3  10.55  .0733    116    1    100.0    5 
25/09/17  10:30   16.2   16.2   16.1    97   15.7   3.0   ENE   0.25   7.0   ENE   16.2   16.5   16.5  1017.6  0.00  0.00   0.008   0.000   23.9    58   15.2   24.3  10.55  .0733    116    1    100.0    5 
25/09/17  10:35   16.3   16.3   16.2    97   15.8   3.0   ENE   0.25   8.0   ENE   16.3   16.6   16.6  1017.5  0.00  0.00   0.007   0.000   23.9    58   15.2   24.3  10.55  .0733    117    1    100.0    5 
25/09/17  10:40   16.3   16.3   16.2    97   15.9   3.0   ENE   0.25   7.0     E   16.3   16.7   16.7  1017.5  0.00  0.00   0.007   0.000   23.9    58   15.2   24.3  10.55  .0733    115    1    100.0    5 
25/09/17  10:45   16.4   16.4   16.3    97   15.9   3.0   ENE   0.25   9.0   ENE   16.4   16.8   16.8  1017.5  0.00  0.00   0.007   0.000   23.9    58   15.2   24.3  10.55  .0733    116    1    100.0    5 
25/09/17  10:50   16.3   16.4   16.3    96   15.7   6.0     E   0.50  10.0     E   16.3   16.7   16.6  1017.5  0.00  0.00   0.007   0.000   23.9    58   15.2   24.3  10.55  .0733    116    1    100.0    5 
25/09/17  10:55   16.3   16.3   16.3    97   15.8   4.0     E   0.33   7.0     E   16.3   16.6   16.6  1017.5  0.00  0.00   0.007   0.000   23.9    58   15.2   24.3  10.55  .0733    116    1    100.0    5 
25/09/17  11:00   16.3   16.3   16.3    97   15.8   2.0   ENE   0.17   7.0     E   16.3   16.6   16.6  1017.4  0.00  0.00   0.007   0.000   23.9    58   15.1   24.3  10.55  .0733    116    1    100.0    5 
25/09/17  11:05   16.3   16.3   16.3    97   15.8   3.0   ENE   0.25   8.0   ENE   16.3   16.6   16.6  1017.5  0.00  0.00   0.007   0.000   23.9    58   15.1   24.3  10.55  .0733    116    1    100.0    5 
25/09/17  11:10   16.3   16.3   16.3    97   15.8   3.0   ENE   0.25   7.0   ENE   16.3   16.6   16.6  1017.5  0.00  0.00   0.007   0.000   23.9    58   15.1   24.3  10.55  .0733    116    1    100.0    5 
25/09/17  11:15   16.3   16.3   16.3    97   15.9   3.0   ENE   0.25   7.0   ENE   16.3   16.7   16.7  1017.5  0.00  0.00   0.007   0.000   23.9    58   15.1   24.3  10.55  .0733    116    1    100.0    5 
25/09/17  11:20   16.4   16.4   16.3    97   16.0   2.0     E   0.17   6.0     E   16.4   16.8   16.8  1017.6  0.00  0.00   0.007   0.000   23.9    58   15.1   24.3  10.55  .0733    116    1    100.0    5 
25/09/17  11:25   16.6   16.6   16.4    97   16.1   3.0     E   0.25   8.0     E   16.6   16.9   16.9  1017.6  0.00  0.00   0.006   0.000   23.9    58   15.1   24.3  10.55  .0733    117    1    100.0    5 
25/09/17  11:30   16.6   16.6   16.6    97   16.1   4.0     E   0.33   7.0     E   16.6   17.0   17.0  1017.6  0.00  0.00   0.006   0.000   23.8    58   15.1   24.2  10.55  .0733    117    1    100.0    5 
25/09/17  11:35   16.7   16.7   16.6    97   16.2   3.0     E   0.25   7.0     E   16.7   17.2   17.2  1017.7  0.00  0.00   0.006   0.000   23.8    58   15.1   24.2  10.55  .0733    116    1    100.0    5 
25/09/17  11:40   16.8   16.8   16.7    97   16.3   3.0     E   0.25   7.0     E   16.8   17.2   17.2  1017.7  0.00  0.00   0.005   0.000   23.8    58   15.1   24.2  10.55  .0733    116    1    100.0    5 
25/09/17  11:45   16.8   16.8   16.8    97   16.4   3.0     E   0.25   6.0     E   16.8   17.3   17.3  1017.7  0.00  0.00   0.005   0.000   23.8    58   15.1   24.2  10.55  .0733    117    1    100.0    5 
25/09/17  11:50   16.9   16.9   16.8    97   16.4   3.0     E   0.25   5.0     E   16.9   17.3   17.3  1017.7  0.00  0.00   0.005   0.000   23.8    58   15.1   24.2  10.55  .0733    116    1    100.0    5 
25/09/17  11:55   16.9   16.9   16.9    97   16.5   4.0     E   0.33   7.0     E   16.9   17.4   17.4  1017.7  0.00  0.00   0.005   0.000   23.8    58   15.1   24.2  10.55  .0733    116    1    100.0    5 
25/09/17  12:00   16.9   16.9   16.9    96   16.2   5.0     E   0.42   8.0     E   16.9   17.3   17.3  1017.7  0.00  0.00   0.005   0.000   23.8    58   15.1   24.2  10.55  .0733    117    1    100.0    5 
25/09/17  12:05   16.8   16.9   16.8    96   16.2   4.0     E   0.33   8.0     E   16.8   17.3   17.3  1017.8  0.00  0.00   0.005   0.000   23.8    58   15.1   24.2  10.55  .0733    115    1    100.0    5 
25/09/17  12:10   16.8   16.8   16.8    96   16.2   4.0     E   0.33   7.0     E   16.8   17.3   17.3  1017.7  0.00  0.00   0.005   0.000   23.8    58   15.1   24.2  10.55  .0733    116    1    100.0    5 
25/09/17  12:15   16.8   16.8   16.8    96   16.2   1.0     E   0.08   3.0     E   16.8   17.3   17.3  1017.7  0.00  0.00   0.005   0.000   23.8    58   15.1   24.2  10.55  .0733    117    1    100.0    5 
25/09/17  12:20   16.8   16.8   16.8    96   16.1   0.0     E   0.00   3.0     E   16.8   17.2   17.2  1017.8  0.00  0.00   0.005   0.000   23.8    58   15.1   24.2  10.55  .0733    116    1    100.0    5 
25/09/17  12:25   16.8   16.8   16.8    96   16.1   1.0     E   0.08   3.0     E   16.8   17.2   17.2  1017.9  0.00  0.00   0.005   0.000   23.8    58   15.1   24.2  10.55  .0733    116    1    100.0    5 
25/09/17  12:30   16.8   16.8   16.8    96   16.1   1.0     E   0.08   3.0     E   16.8   17.2   17.2  1017.9  0.00  0.00   0.005   0.000   23.8    58   15.1   24.2  10.55  .0733    118    1    100.0    5 
25/09/17  12:35   16.8   16.8   16.8    96   16.1   1.0     E   0.08   3.0     E   16.8   17.2   17.2  1017.8  0.00  0.00   0.005   0.000   23.8    58   15.1   24.2  10.55  .0733    117    1    100.0    5 
25/09/17  12:40   16.8   16.8   16.8    96   16.1   1.0     E   0.08   3.0     E   16.8   17.2   17.2  1017.8  0.00  0.00   0.005   0.000   23.8    58   15.1   24.2  10.55  .0733    116    1    100.0    5 
25/09/17  12:45   16.8   16.8   16.8    96   16.1   1.0     E   0.08   3.0     E   16.8   17.2   17.2  1017.7  0.00  0.00   0.005   0.000   23.8    58   15.1   24.2  10.55  .0733    116    1    100.0    5 
25/09/17  12:50   16.7   16.8   16.7    96   16.1   1.0     E   0.08   3.0     E   16.7   17.1   17.1  1017.7  0.00  0.00   0.006   0.000   23.8    58   15.1   24.2  10.55  .0733    117    1    100.0    5 
25/09/17  12:55   16.8   16.8   16.7    96   16.1   0.0     E   0.00   1.0     E   16.8   17.2   17.2  1017.7  0.00  0.00   0.005   0.000   23.8    58   15.1   24.2  10.55  .0733    116    1    100.0    5 
25/09/17  13:00   16.8   16.8   16.8    96   16.1   1.0     E   0.08   3.0     E   16.8   17.2   17.2  1017.8  0.00  0.00   0.005   0.000   23.8    58   15.1   24.2  10.55  .0733    117    1    100.0    5 
25/09/17  13:05   16.7   16.8   16.7    96   16.1   0.0     E   0.00   2.0     E   16.7   17.1   17.1  1017.8  0.00  0.00   0.006   0.000   23.8    58   15.1   24.2  10.55  .0733    117    1    100.0    5 
25/09/17  13:10   16.8   16.8   16.7    96   16.1   1.0     E   0.08   5.0     E   16.8   17.2   17.2  1017.8  0.00  0.00   0.005   0.000   23.8    58   15.1   24.2  10.55  .0733    116    1    100.0    5 
25/09/17  13:15   16.9   16.9   16.8    96   16.2   2.0     E   0.17   3.0     E   16.9   17.3   17.3  1017.8  0.00  0.00   0.005   0.000   23.8    58   15.1   24.2  10.55  .0733    116    1    100.0    5 
25/09/17  13:20   16.9   16.9   16.9    96   16.3   2.0     E   0.17   6.0     E   16.9   17.4   17.4  1017.8  0.00  0.00   0.005   0.000   23.8    58   15.1   24.2  10.55  .0733    115    1    100.0    5 
25/09/17  13:25   17.0   17.0   16.9    96   16.4   0.0     E   0.00   2.0     E   17.0   17.4   17.4  1017.8  0.00  0.00   0.005   0.000   23.9    58   15.1   24.3  10.55  .0733    116    1    100.0    5 
25/09/17  13:30   17.0   17.0   17.0    96   16.4   2.0     E   0.17   5.0     E   17.0   17.4   17.4  1017.9  0.00  0.00   0.005   0.000   23.8    58   15.1   24.2  10.55  .0733    118    1    100.0    5 
25/09/17  13:35   17.0   17.0   16.9    96   16.4   1.0   ENE   0.08   3.0   ENE   17.0   17.4   17.4  1017.9  0.00  0.00   0.005   0.000   23.9    58   15.1   24.3  10.55  .0733    117    1    100.0    5 
25/09/17  13:40   17.0   17.1   17.0    96   16.4   0.0   ENE   0.00   2.0   ENE   17.0   17.4   17.4  1017.9  0.00  0.00   0.005   0.000   23.9    58   15.1   24.3  10.55  .0733    116    1    100.0    5 
25/09/17  13:45   17.1   17.1   17.1    95   16.2   0.0   ENE   0.00   2.0   ENE   17.1   17.5   17.5  1018.0  0.00  0.00   0.004   0.000   23.9    58   15.1   24.3  10.55  .0733    117    1    100.0    5 
25/09/17  13:50   17.1   17.1   17.1    95   16.2   0.0   ESE   0.00   2.0     E   17.1   17.5   17.5  1018.0  0.00  0.00   0.004   0.000   23.9    58   15.1   24.3  10.55  .0733    117    1    100.0    5 
25/09/17  13:55   17.1   17.1   17.1    95   16.2   0.0   ESE   0.00   1.0   ESE   17.1   17.5   17.5  1018.0  0.00  0.00   0.004   0.000   23.9    58   15.1   24.3  10.55  .0733    117    1    100.0    5 
25/09/17  14:00   17.2   17.2   17.1    95   16.4   0.0   ESE   0.00   1.0   ESE   17.2   17.6   17.6  1018.0  0.00  0.00   0.004   0.000   23.9    58   15.1   24.3  10.55  .0733    117    1    100.0    5 
25/09/17  14:05   17.3   17.3   17.2    95   16.5   0.0     E   0.00   2.0     E   17.3   17.7   17.7  1018.0  0.00  0.00   0.004   0.000   23.9    58   15.1   24.3  10.55  .0733    117    1    100.0    5 
25/09/17  14:10   17.2   17.3   17.2    95   16.4   0.0     E   0.00   2.0     E   17.2   17.6   17.6  1018.1  0.00  0.00   0.004   0.000   23.9    58   15.1   24.3  10.55  .0733    117    1    100.0    5 
25/09/17  14:15   17.2   17.2   17.2    95   16.4   0.0     E   0.00   2.0     E   17.2   17.6   17.6  1018.1  0.00  0.00   0.004   0.000   23.8    58   15.1   24.2  10.55  .0733    116    1    100.0    5 
25/09/17  14:20   17.1   17.2   17.1    95   16.3   3.0   ENE   0.25   7.0    NE   17.1   17.6   17.6  1018.1  0.00  0.00   0.004   0.000   23.9    58   15.1   24.3  10.55  .0733    116    1    100.0    5 
25/09/17  14:25   17.1   17.1   17.1    94   16.1   4.0   NNE   0.33   7.0   NNE   17.1   17.4   17.4  1018.1  0.00  0.00   0.004   0.000   23.9    58   15.1   24.3  10.55  .0733    116    1    100.0    5 
25/09/17  14:30   17.0   17.1   17.0    94   16.0   4.0   NNE   0.33   7.0   NNE   17.0   17.4   17.4  1018.1  0.00  0.00   0.005   0.000   23.9    58   15.1   24.3  10.55  .0733    116    1    100.0    5 
25/09/17  14:35   17.0   17.1   17.0    94   16.0   5.0   NNE   0.42   9.0   NNE   17.0   17.4   17.4  1018.1  0.00  0.00   0.005   0.000   23.9    58   15.1   24.3  10.55  .0733    118    1    100.0    5 
25/09/17  14:40   17.0   17.1   17.0    94   16.0   5.0   NNE   0.42   8.0   NNE   17.0   17.4   17.4  1018.1  0.00  0.00   0.005   0.000   23.9    58   15.1   24.3  10.55  .0733    116    1    100.0    5 
25/09/17  14:45   17.1   17.1   17.0    94   16.1   3.0   NNE   0.25   6.0   NNE   17.1   17.4   17.4  1018.0  0.00  0.00   0.004   0.000   23.9    58   15.1   24.3  10.55  .0733    115    1    100.0    5 
25/09/17  14:50   17.2   17.2   17.1    95   16.4   3.0   NNE   0.25   8.0   NNE   17.2   17.6   17.6  1018.0  0.00  0.00   0.004   0.000   23.9    58   15.2   24.3  10.55  .0733    115    1    100.0    5 
25/09/17  14:55   17.2   17.2   17.1    94   16.2   3.0   NNE   0.25   5.0   NNE   17.2   17.6   17.6  1018.1  0.00  0.00   0.004   0.000   23.9    58   15.2   24.3  10.55  .0733    117    1    100.0    5 
25/09/17  15:00   17.2   17.2   17.2    94   16.2   4.0   NNE   0.33   7.0   NNE   17.2   17.6   17.6  1018.1  0.00  0.00   0.004   0.000   24.0    58   15.2   24.4  10.54  .0733    116    1    100.0    5 
25/09/17  15:05   17.2   17.2   17.1    94   16.2   4.0   NNE   0.33   7.0   NNE   17.2   17.6   17.6  1018.1  0.00  0.00   0.004   0.000   24.0    58   15.2   24.4  10.54  .0733    117    1    100.0    5 
25/09/17  15:10   17.1   17.2   17.1    94   16.1   2.0   NNE   0.17   5.0   NNE   17.1   17.6   17.6  1018.1  0.00  0.00   0.004   0.000   24.0    58   15.2   24.4  10.54  .0733    117    1    100.0    5 
25/09/17  15:15   17.2   17.2   17.1    94   16.2   1.0   NNE   0.08   3.0   NNE   17.2   17.6   17.6  1018.2  0.00  0.00   0.004   0.000   24.1    58   15.3   24.4  10.54  .0733    117    1    100.0    5 
25/09/17  15:20   17.2   17.2   17.2    94   16.2   1.0   NNE   0.08   4.0   NNE   17.2   17.7   17.7  1018.1  0.00  0.00   0.004   0.000   24.1    58   15.3   24.4  10.54  .0733    115    1    100.0    5 
25/09/17  15:25   17.3   17.3   17.2    94   16.4   3.0     W   0.25   5.0   WSW   17.3   17.8   17.8  1018.2  0.00  0.00   0.003   0.000   24.1    58   15.3   24.4  10.54  .0733    117    1    100.0    5 
25/09/17  15:30   17.4   17.4   17.3    94   16.4   3.0    NE   0.25   8.0    NE   17.4   17.8   17.8  1018.1  0.00  0.00   0.003   0.000   24.1    58   15.3   24.4  10.54  .0733    117    1    100.0    5 
25/09/17  15:35   17.4   17.4   17.4    93   16.2   2.0    NE   0.17   7.0   NNE   17.4   17.8   17.8  1017.9  0.00  0.00   0.003   0.000   24.1    58   15.3   24.4  10.54  .0733    118    1    100.0    5 
25/09/17  15:40   17.4   17.4   17.4    93   16.3   4.0    NE   0.33   9.0   NNE   17.4   17.9   17.9  1018.0  0.00  0.00   0.003   0.000   24.1    58   15.3   24.5  10.53  .0732    117    1    100.0    5 
25/09/17  15:45   17.5   17.5   17.4    93   16.4   2.0    NE   0.17   5.0   NNE   17.5   17.9   17.9  1018.0  0.00  0.00   0.003   0.000   24.1    58   15.3   24.5  10.53  .0732    117    1    100.0    5 
25/09/17  15:50   17.7   17.7   17.5    93   16.5   3.0   ENE   0.25   7.0    NE   17.7   18.2   18.2  1018.0  0.00  0.00   0.002   0.000   24.1    58   15.3   24.4  10.54  .0733    117    1    100.0    5 
25/09/17  15:55   17.8   17.8   17.7    93   16.6   3.0    NE   0.25   7.0    NE   17.8   18.3   18.3  1018.0  0.00  0.00   0.002   0.000   24.1    58   15.3   24.5  10.53  .0732    117    1    100.0    5 
25/09/17  16:00   18.1   18.1   17.8    93   16.9   3.0    NE   0.25   7.0    NE   18.1   18.6   18.6  1017.9  0.00  0.00   0.001   0.000   24.1    58   15.3   24.5  10.53  .0732    116    1    100.0    5 
25/09/17  16:05   18.6   18.6   18.1    93   17.5   3.0    NE   0.25   7.0    NE   18.6   19.3   19.3  1017.9  0.00  0.00   0.000   0.001   24.2    58   15.4   24.5  10.53  .0732    117    1    100.0    5 
25/09/17  16:10   18.9   18.9   18.6    92   17.6   2.0    NE   0.17   7.0    NE   18.9   19.7   19.7  1018.0  0.00  0.00   0.000   0.002   24.2    58   15.4   24.5  10.53  .0732    114    1    100.0    5 
25/09/17  16:15   19.6   19.6   18.9    93   18.4   2.0    NE   0.17   7.0     E   19.6   20.5   20.5  1018.0  0.00  0.00   0.000   0.004   24.2    58   15.4   24.6  10.53  .0732    117    1    100.0    5 
25/09/17  16:20   20.2   20.2   19.6    91   18.7   4.0     E   0.33   8.0     E   20.2   21.3   21.3  1018.0  0.00  0.00   0.000   0.007   24.2    58   15.4   24.6  10.53  .0732    116    1    100.0    5 
25/09/17  16:25   20.7   20.7   20.2    90   19.0   3.0     E   0.25   7.0     E   20.7   21.8   21.8  1018.1  0.00  0.00   0.000   0.008   24.3    58   15.5   24.6  10.52  .0732    116    1    100.0    5 
25/09/17  16:30   21.4   21.4   20.8    90   19.7   2.0     E   0.17   5.0     E   21.4   22.6   22.6  1018.2  0.00  0.00   0.000   0.011   24.3    58   15.5   24.7  10.52  .0732    117    1    100.0    5 
25/09/17  16:35   21.8   21.8   21.4    88   19.8   4.0     E   0.33   7.0     E   21.8   22.9   22.9  1018.2  0.00  0.00   0.000   0.012   24.3    58   15.5   24.7  10.52  .0732    117    1    100.0    5 
25/09/17  16:40   21.9   22.0   21.8    85   19.3   3.0     E   0.25   4.0     E   21.9   22.9   22.9  1018.3  0.00  0.00   0.000   0.013   24.3    58   15.5   24.7  10.52  .0732    118    1    100.0    5 
25/09/17  16:45   21.8   22.0   21.8    83   18.8   1.0     E   0.08   3.0     E   21.8   22.7   22.7  1018.4  0.00  0.00   0.000   0.012   24.3    58   15.5   24.7  10.52  .0732    117    1    100.0    5 
25/09/17  16:50   21.4   21.8   21.4    81   18.0   1.0     E   0.08   3.0     E   21.4   22.2   22.2  1018.4  0.00  0.00   0.000   0.011   24.4    58   15.6   24.7  10.51  .0732    115    1    100.0    5 
25/09/17  16:55   20.7   21.4   20.7    80   17.1   1.0   ESE   0.08   2.0     E   20.7   21.5   21.5  1018.4  0.00  0.00   0.000   0.008   24.4    58   15.6   24.7  10.51  .0732    117    1    100.0    5 
25/09/17  17:00   20.0   20.7   20.0    81   16.6   1.0   ESE   0.08   2.0   ESE   20.0   20.7   20.7  1018.5  0.00  0.00   0.000   0.006   24.4    58   15.6   24.7  10.51  .0732    117    1    100.0    5 
25/09/17  17:05   19.6   20.0   19.6    82   16.4   1.0   ESE   0.08   2.0   ESE   19.6   20.2   20.2  1018.6  0.00  0.00   0.000   0.004   24.4    58   15.6   24.7  10.51  .0732    116    1    100.0    5 
25/09/17  17:10   19.1   19.5   19.1    83   16.2   1.0   ESE   0.08   2.0   ESE   19.1   19.7   19.7  1018.6  0.00  0.00   0.000   0.003   24.4    58   15.6   24.7  10.51  .0732    117    1    100.0    5 
25/09/17  17:15   18.7   19.1   18.7    83   15.8   1.0   ESE   0.08   2.0   ESE   18.7   19.2   19.2  1018.6  0.00  0.00   0.000   0.001   24.4    58   15.6   24.7  10.51  .0732    117    1    100.0    5 
25/09/17  17:20   18.3   18.7   18.3    85   15.8   1.0   ESE   0.08   2.0   ESE   18.3   18.8   18.8  1018.7  0.00  0.00   0.000   0.000   24.4    59   15.9   24.7  10.71  .0732    116    1    100.0    5 
25/09/17  17:25   18.1   18.3   18.1    86   15.7   1.0   ESE   0.08   2.0   ESE   18.1   18.4   18.4  1018.7  0.00  0.00   0.001   0.000   24.4    59   15.9   24.7  10.71  .0732    117    1    100.0    5 
25/09/17  17:30   17.9   18.1   17.9    87   15.7   1.0   ESE   0.08   2.0   ESE   17.9   18.3   18.3  1018.7  0.00  0.00   0.002   0.000   24.4    59   15.9   24.7  10.71  .0732    117    1    100.0    5 
25/09/17  17:35   17.7   17.9   17.7    87   15.5   1.0   ESE   0.08   2.0   ESE   17.7   18.1   18.1  1018.8  0.00  0.00   0.002   0.000   24.4    59   15.9   24.7  10.71  .0732    117    1    100.0    5 
25/09/17  17:40   17.6   17.7   17.6    88   15.6   1.0   ESE   0.08   2.0   ESE   17.6   18.0   18.0  1018.8  0.00  0.00   0.003   0.000   24.4    59   15.9   24.7  10.71  .0732    116    1    100.0    5 
25/09/17  17:45   17.5   17.6   17.5    88   15.5   1.0   ESE   0.08   2.0   ESE   17.5   17.9   17.9  1018.9  0.00  0.00   0.003   0.000   24.4    59   15.9   24.7  10.71  .0732    117    1    100.0    5 
25/09/17  17:50   17.5   17.5   17.4    89   15.7   1.0   ESE   0.08   2.0   ESE   17.5   17.9   17.9  1018.9  0.00  0.00   0.003   0.000   24.4    59   15.9   24.7  10.71  .0732    117    1    100.0    5 
25/09/17  17:55   17.4   17.5   17.4    89   15.6   1.0   ESE   0.08   2.0   ESE   17.4   17.8   17.8  1019.0  0.00  0.00   0.003   0.000   24.4    59   15.9   24.7  10.71  .0732    116    1    100.0    5 
25/09/17  18:00   17.3   17.4   17.3    89   15.5   1.0   ESE   0.08   3.0   ESE   17.3   17.7   17.7  1019.0  0.00  0.00   0.003   0.000   24.4    59   15.9   24.7  10.71  .0732    117    1    100.0    5 
25/09/17  18:05   17.3   17.3   17.3    89   15.5   2.0    SE   0.17   3.0   ESE   17.3   17.7   17.7  1019.1  0.00  0.00   0.003   0.000   24.4    59   15.9   24.7  10.71  .0732    117    1    100.0    5 
25/09/17  18:10   17.4   17.4   17.3    89   15.6   2.0    SE   0.17   4.0    SE   17.4   17.8   17.8  1019.1  0.00  0.00   0.003   0.000   24.4    59   15.9   24.7  10.71  .0732    117    1    100.0    5 
25/09/17  18:15   17.4   17.4   17.4    89   15.6   2.0   SSE   0.17   4.0    SE   17.4   17.8   17.8  1019.1  0.00  0.00   0.003   0.000   24.4    59   15.9   24.7  10.71  .0732    117    1    100.0    5 
25/09/17  18:20   17.4   17.4   17.4    89   15.6   1.0   SSE   0.08   3.0   SSE   17.4   17.8   17.8  1019.2  0.00  0.00   0.003   0.000   24.3    59   15.8   24.7  10.72  .0732    117    1    100.0    5 
25/09/17  18:25   17.4   17.4   17.4    89   15.6   0.0   SSE   0.00   1.0   SSE   17.4   17.8   17.8  1019.2  0.00  0.00   0.003   0.000   24.4    59   15.9   24.7  10.71  .0732    115    1    100.0    5 
25/09/17  18:30   17.4   17.4   17.4    89   15.6   0.0   ---   0.00   0.0   ---   17.4   17.8   17.8  1019.2  0.00  0.00   0.003   0.000   24.3    59   15.8   24.7  10.72  .0732    117    1    100.0    5 
25/09/17  18:35   17.5   17.5   17.4    89   15.7   0.0   SSE   0.00   1.0   SSE   17.5   17.9   17.9  1019.2  0.00  0.00   0.003   0.000   24.4    59   15.9   24.7  10.71  .0732    115    1    100.0    5 
25/09/17  18:40   17.5   17.5   17.4    89   15.7   0.0   ---   0.00   0.0   ---   17.5   17.9   17.9  1019.2  0.00  0.00   0.003   0.000   24.3    59   15.8   24.7  10.72  .0732    117    1    100.0    5 
25/09/17  18:45   17.5   17.5   17.5    89   15.7   0.0   ---   0.00   0.0   ---   17.5   17.9   17.9  1019.1  0.00  0.00   0.003   0.000   24.4    59   15.9   24.7  10.71  .0732    117    1    100.0    5 
25/09/17  18:50   17.5   17.6   17.5    89   15.7   0.0   ---   0.00   0.0   ---   17.5   17.9   17.9  1019.1  0.00  0.00   0.003   0.000   24.3    59   15.8   24.7  10.72  .0732    117    1    100.0    5 
25/09/17  18:55   17.5   17.5   17.5    89   15.7   0.0   SSE   0.00   1.0   SSE   17.5   17.9   17.9  1019.1  0.00  0.00   0.003   0.000   24.3    59   15.8   24.7  10.72  .0732    116    1    100.0    5 
25/09/17  19:00   17.4   17.5   17.4    89   15.6   0.0   SSE   0.00   2.0   SSE   17.4   17.8   17.8  1019.2  0.00  0.00   0.003   0.000   24.3    59   15.8   24.7  10.72  .0732    117    1    100.0    5 
25/09/17  19:05   17.4   17.4   17.4    89   15.6   0.0   ---   0.00   0.0   ---   17.4   17.8   17.8  1019.2  0.00  0.00   0.003   0.000   24.3    59   15.8   24.7  10.72  .0732    115    1    100.0    5 
25/09/17  19:10   17.3   17.4   17.3    89   15.5   0.0   SSE   0.00   1.0   SSE   17.3   17.7   17.7  1019.3  0.00  0.00   0.003   0.000   24.3    59   15.8   24.7  10.72  .0732    116    1    100.0    5 
25/09/17  19:15   17.2   17.3   17.2    89   15.4   0.0   SSE   0.00   1.0   SSE   17.2   17.6   17.6  1019.4  0.00  0.00   0.004   0.000   24.3    59   15.8   24.7  10.72  .0733    116    1    100.0    5 
25/09/17  19:20   17.2   17.2   17.2    88   15.2   0.0   ---   0.00   0.0   ---   17.2   17.5   17.5  1019.4  0.00  0.00   0.004   0.000   24.3    59   15.8   24.7  10.72  .0733    117    1    100.0    5 
25/09/17  19:25   17.1   17.2   17.1    88   15.1   1.0   SSE   0.08   4.0   SSE   17.1   17.4   17.4  1019.4  0.00  0.00   0.004   0.000   24.3    58   15.5   24.7  10.52  .0733    116    1    100.0    5 
25/09/17  19:30   17.0   17.1   17.0    89   15.2   1.0   SSE   0.08   3.0   SSE   17.0   17.3   17.3  1019.5  0.00  0.00   0.005   0.000   24.3    59   15.8   24.7  10.72  .0733    115    1    100.0    5 
25/09/17  19:35   17.0   17.0   17.0    89   15.2   2.0   SSE   0.17   4.0   SSE   17.0   17.3   17.3  1019.5  0.00  0.00   0.005   0.000   24.3    58   15.5   24.6  10.52  .0733    116    1    100.0    5 
25/09/17  19:40   16.9   17.0   16.9    89   15.1   1.0   SSE   0.08   4.0   SSE   16.9   17.3   17.3  1019.5  0.00  0.00   0.005   0.000   24.3    58   15.5   24.6  10.52  .0733    117    1    100.0    5 
25/09/17  19:45   16.9   16.9   16.9    89   15.1   1.0   SSE   0.08   4.0   SSE   16.9   17.3   17.3  1019.5  0.00  0.00   0.005   0.000   24.3    58   15.5   24.6  10.52  .0733    117    1    100.0    5 
25/09/17  19:50   16.9   16.9   16.9    89   15.1   0.0   SSE   0.00   2.0   SSE   16.9   17.3   17.3  1019.5  0.00  0.00   0.005   0.000   24.3    58   15.5   24.6  10.52  .0733    118    1    100.0    5 
25/09/17  19:55   16.9   16.9   16.9    89   15.1   1.0   SSE   0.08   3.0   SSE   16.9   17.2   17.2  1019.5  0.00  0.00   0.005   0.000   24.3    58   15.5   24.6  10.52  .0733    117    1    100.0    5 
25/09/17  20:00   16.8   16.9   16.8    89   15.0   2.0   SSE   0.17   5.0   SSE   16.8   17.1   17.1  1019.6  0.00  0.00   0.005   0.000   24.3    58   15.5   24.6  10.52  .0733    117    1    100.0    5 
25/09/17  20:05   16.8   16.8   16.8    89   15.0   1.0   SSE   0.08   4.0   SSE   16.8   17.1   17.1  1019.6  0.00  0.00   0.005   0.000   24.3    58   15.5   24.6  10.52  .0733    117    1    100.0    5 
25/09/17  20:10   16.7   16.8   16.7    89   14.9   1.0   SSE   0.08   4.0   SSE   16.7   17.0   17.0  1019.6  0.00  0.00   0.006   0.000   24.3    58   15.5   24.6  10.52  .0733    116    1    100.0    5 
25/09/17  20:15   16.7   16.8   16.7    89   14.9   1.0   SSE   0.08   4.0   SSE   16.7   17.0   17.0  1019.7  0.00  0.00   0.006   0.000   24.3    58   15.5   24.6  10.52  .0733    116    1    100.0    5 
25/09/17  20:20   16.7   16.7   16.7    89   14.8   2.0   SSE   0.17   5.0   SSE   16.7   16.9   16.9  1019.7  0.00  0.00   0.006   0.000   24.3    58   15.5   24.6  10.52  .0733    117    1    100.0    5 
25/09/17  20:25   16.6   16.7   16.6    89   14.8   2.0   SSE   0.17   5.0   SSE   16.6   16.9   16.9  1019.8  0.00  0.00   0.006   0.000   24.2    58   15.4   24.6  10.53  .0733    117    1    100.0    5 
25/09/17  20:30   16.6   16.6   16.6    89   14.7   2.0   SSE   0.17   4.0   SSE   16.6   16.8   16.8  1019.6  0.00  0.00   0.006   0.000   24.3    58   15.5   24.6  10.52  .0733    116    1    100.0    5 
25/09/17  20:35   16.5   16.6   16.5    89   14.7   2.0   SSE   0.17   5.0   ESE   16.5   16.7   16.7  1019.7  0.00  0.00   0.006   0.000   24.2    58   15.4   24.6  10.53  .0733    117    1    100.0    5 
25/09/17  20:40   16.4   16.5   16.4    89   14.6   3.0     E   0.25   7.0     E   16.4   16.7   16.7  1019.7  0.00  0.00   0.007   0.000   24.2    58   15.4   24.6  10.53  .0733    117    1    100.0    5 
25/09/17  20:45   16.4   16.4   16.4    89   14.6   3.0   ENE   0.25   6.0   ENE   16.4   16.6   16.6  1019.7  0.00  0.00   0.007   0.000   24.2    58   15.4   24.6  10.53  .0733    116    1    100.0    5 
25/09/17  20:50   16.3   16.4   16.3    89   14.5   3.0   ENE   0.25   7.0   ENE   16.3   16.6   16.6  1019.7  0.00  0.00   0.007   0.000   24.2    58   15.4   24.6  10.53  .0733    117    1    100.0    5 
25/09/17  20:55   16.3   16.3   16.3    89   14.5   3.0   ENE   0.25   6.0   ENE   16.3   16.5   16.5  1019.7  0.00  0.00   0.007   0.000   24.2    58   15.4   24.6  10.53  .0733    115    1    100.0    5 
25/09/17  21:00   16.3   16.3   16.3    90   14.6   4.0   ENE   0.33   7.0   ENE   16.3   16.5   16.5  1019.7  0.00  0.00   0.007   0.000   24.2    58   15.4   24.5  10.53  .0734    117    1    100.0    5 
25/09/17  21:05   16.3   16.3   16.3    90   14.6   3.0   ENE   0.25   7.0   ENE   16.3   16.5   16.5  1019.8  0.00  0.00   0.007   0.000   24.2    58   15.4   24.5  10.53  .0734    117    1    100.0    5 
25/09/17  21:10   16.3   16.3   16.3    90   14.6   3.0   ENE   0.25   6.0   ENE   16.3   16.5   16.5  1019.9  0.00  0.00   0.007   0.000   24.2    58   15.4   24.5  10.53  .0734    117    1    100.0    5 
25/09/17  21:15   16.3   16.3   16.3    90   14.6   2.0   ENE   0.17   7.0   ENE   16.3   16.5   16.5  1019.8  0.00  0.00   0.007   0.000   24.2    58   15.4   24.5  10.53  .0734    117    1    100.0    5 
25/09/17  21:20   16.3   16.3   16.3    90   14.7   3.0   ENE   0.25   7.0   ENE   16.3   16.6   16.6  1019.9  0.00  0.00   0.007   0.000   24.2    58   15.4   24.5  10.53  .0734    116    1    100.0    5 
25/09/17  21:25   16.3   16.3   16.3    90   14.7   4.0   ENE   0.33   7.0   ENE   16.3   16.6   16.6  1020.0  0.00  0.00   0.007   0.000   24.2    58   15.4   24.5  10.53  .0734    117    1    100.0    5 
25/09/17  21:30   16.4   16.4   16.3    90   14.7   4.0   ENE   0.33   7.0   ENE   16.4   16.7   16.7  1020.0  0.00  0.00   0.007   0.000   24.2    58   15.4   24.5  10.53  .0734    116    1    100.0    5 
25/09/17  21:35   16.4   16.4   16.4    91   14.9   5.0   ENE   0.42   8.0   ENE   16.4   16.7   16.7  1020.0  0.00  0.00   0.007   0.000   24.2    58   15.4   24.5  10.53  .0734    114    1    100.0    5 
25/09/17  21:40   16.4   16.4   16.4    91   14.9   4.0   ENE   0.33   8.0   ENE   16.4   16.7   16.7  1020.0  0.00  0.00   0.007   0.000   24.1    58   15.3   24.5  10.53  .0734    117    1    100.0    5 
25/09/17  21:45   16.4   16.4   16.4    91   14.9   5.0   ENE   0.42   9.0   ENE   16.4   16.7   16.7  1020.1  0.00  0.00   0.007   0.000   24.1    58   15.3   24.5  10.53  .0734    117    1    100.0    5 
25/09/17  21:50   16.4   16.4   16.3    91   14.9   3.0    NE   0.25   8.0    NE   16.4   16.7   16.7  1020.1  0.00  0.00   0.007   0.000   24.1    58   15.3   24.5  10.53  .0734    115    1    100.0    5 
25/09/17  21:55   16.4   16.4   16.3    91   14.9   4.0    NE   0.33   8.0    NE   16.4   16.7   16.7  1020.2  0.00  0.00   0.007   0.000   24.1    58   15.3   24.5  10.53  .0734    118    1    100.0    5 
25/09/17  22:00   16.3   16.4   16.3    91   14.9   5.0    NE   0.42   9.0    NE   16.3   16.6   16.6  1020.2  0.00  0.00   0.007   0.000   24.1    58   15.3   24.5  10.53  .0734    117    1    100.0    5 
25/09/17  22:05   16.3   16.3   16.3    91   14.9   6.0    NE   0.50   9.0    NE   16.3   16.6   16.6  1020.2  0.00  0.00   0.007   0.000   24.1    58   15.3   24.5  10.53  .0734    116    1    100.0    5 
25/09/17  22:10   16.3   16.3   16.3    91   14.8   5.0    NE   0.42   8.0    NE   16.3   16.6   16.6  1020.2  0.00  0.00   0.007   0.000   24.1    58   15.3   24.4  10.54  .0734    117    1    100.0    5 
25/09/17  22:15   16.2   16.3   16.2    91   14.8   7.0   NNE   0.58  11.0    NE   15.9   16.4   16.2  1020.2  0.00  0.00   0.007   0.000   24.1    58   15.3   24.4  10.54  .0734    117    1    100.0    5 
25/09/17  22:20   16.2   16.2   16.2    91   14.7   5.0   NNE   0.42   9.0   NNE   16.2   16.4   16.4  1020.1  0.00  0.00   0.008   0.000   24.1    58   15.3   24.4  10.54  .0734    117    1    100.0    5 
25/09/17  22:25   16.2   16.2   16.2    91   14.7   6.0   NNE   0.50  10.0   NNE   16.1   16.4   16.3  1020.2  0.00  0.00   0.008   0.000   24.1    58   15.3   24.4  10.54  .0734    117    1    100.0    5 
25/09/17  22:30   16.2   16.2   16.1    92   14.9   5.0   NNE   0.42   8.0   NNE   16.2   16.4   16.4  1020.1  0.00  0.00   0.008   0.000   24.1    58   15.3   24.4  10.54  .0734    116    1    100.0    5 
25/09/17  22:35   16.1   16.2   16.1    92   14.8   5.0   NNE   0.42   8.0   NNE   16.1   16.3   16.3  1020.1  0.00  0.00   0.008   0.000   24.1    58   15.3   24.4  10.54  .0734    117    1    100.0    5 
25/09/17  22:40   16.1   16.1   16.1    92   14.8   5.0   NNE   0.42   8.0   NNE   16.1   16.3   16.3  1020.1  0.00  0.00   0.008   0.000   24.1    58   15.3   24.4  10.54  .0734    117    1    100.0    5 
25/09/17  22:45   16.1   16.1   16.1    92   14.8   5.0   NNE   0.42   8.0   NNE   16.1   16.3   16.3  1020.1  0.00  0.00   0.008   0.000   24.1    58   15.3   24.4  10.54  .0734    117    1    100.0    5 
25/09/17  22:50   16.0   16.1   16.0    92   14.7   5.0   NNE   0.42  10.0   NNE   16.0   16.2   16.2  1020.1  0.00  0.00   0.008   0.000   24.1    59   15.5   24.5  10.74  .0734    116    1    100.0    5 
25/09/17  22:55   16.0   16.0   15.9    92   14.7   6.0   NNE   0.50  10.0   NNE   15.9   16.2   16.1  1020.1  0.00  0.00   0.008   0.000   24.1    59   15.6   24.5  10.73  .0734    117    1    100.0    5 
25/09/17  23:00   15.9   15.9   15.9    92   14.6   5.0   NNE   0.42  10.0   NNE   15.9   16.2   16.2  1020.1  0.00  0.00   0.008   0.000   24.1    59   15.6   24.5  10.73  .0734    118    1    100.0    5 
25/09/17  23:05   15.9   15.9   15.9    92   14.6   5.0   NNE   0.42   8.0   NNE   15.9   16.1   16.1  1020.0  0.00  0.00   0.008   0.000   24.2    59   15.6   24.6  10.73  .0734    117    1    100.0    5 
25/09/17  23:10   15.9   15.9   15.9    92   14.6   5.0   NNE   0.42   8.0   NNE   15.9   16.1   16.1  1020.0  0.00  0.00   0.008   0.000   24.2    59   15.6   24.6  10.73  .0733    116    1    100.0    5 
25/09/17  23:15   15.8   15.9   15.8    92   14.5   5.0   NNE   0.42   9.0   NNE   15.8   16.1   16.1  1019.9  0.00  0.00   0.009   0.000   24.2    59   15.6   24.6  10.73  .0733    116    1    100.0    5 
25/09/17  23:20   15.8   15.8   15.8    92   14.5   5.0   NNE   0.42   8.0   NNE   15.8   16.1   16.1  1019.9  0.00  0.00   0.009   0.000   24.2    59   15.6   24.6  10.73  .0733    117    1    100.0    5 
25/09/17  23:25   15.8   15.8   15.8    92   14.5   6.0   NNE   0.50  11.0   NNE   15.6   16.0   15.8  1019.8  0.00  0.00   0.009   0.000   24.2    59   15.6   24.6  10.73  .0733    117    1    100.0    5 
25/09/17  23:30   15.8   15.8   15.8    92   14.5   5.0   NNE   0.42   8.0   NNE   15.8   16.0   16.0  1019.9  0.00  0.00   0.009   0.000   24.2    59   15.6   24.6  10.73  .0733    117    1    100.0    5 
25/09/17  23:35   15.8   15.8   15.8    93   14.6   5.0   NNE   0.42   8.0   NNE   15.8   16.0   16.0  1019.8  0.00  0.00   0.009   0.000   24.2    59   15.6   24.6  10.73  .0733    116    1    100.0    5 
25/09/17  23:40   15.7   15.8   15.7    92   14.4   5.0   NNE   0.42   8.0   NNE   15.7   15.9   15.9  1019.8  0.00  0.00   0.009   0.000   24.2    59   15.6   24.6  10.73  .0733    117    1    100.0    5 
25/09/17  23:45   15.7   15.7   15.7    92   14.4   5.0   NNE   0.42   9.0   NNE   15.7   15.9   15.9  1019.8  0.00  0.00   0.009   0.000   24.2    59   15.6   24.6  10.73  .0733    117    1    100.0    5 
25/09/17  23:50   15.7   15.7   15.7    92   14.4   5.0   NNE   0.42   8.0   NNE   15.7   15.9   15.9  1019.8  0.00  0.00   0.009   0.000   24.2    59   15.6   24.6  10.73  .0733    116    1    100.0    5 
25/09/17  23:55   15.7   15.7   15.7    93   14.5   6.0   NNE   0.50   9.0   NNE   15.4   15.9   15.7  1019.8  0.00  0.00   0.009   0.000   24.1    59   15.6   24.5  10.73  .0734    117    1    100.0    5 
26/09/17  00:00   15.7   15.7   15.7    93   14.5   5.0   NNE   0.42   8.0   NNE   15.7   15.9   15.9  1019.7  0.00  0.00   0.009   0.000   24.1    59   15.6   24.5  10.73  .0733    116    1    100.0    5 
26/09/17   0:05   15.6   15.7   15.6    93   14.5   5.0   NNE   0.42   8.0   NNE   15.6   15.8   15.8  1019.7  0.00  0.00   0.009   0.000   24.1    59   15.6   24.5  10.73  .0733    114    1    100.0    5 
26/09/17   0:10   15.6   15.6   15.6    93   14.5   6.0   NNE   0.50   9.0   NNE   15.4   15.8   15.6  1019.7  0.00  0.00   0.009   0.000   24.1    59   15.6   24.5  10.73  .0733    117    1    100.0    5 
26/09/17   0:15   15.6   15.6   15.6    93   14.5   5.0   NNE   0.42   9.0   NNE   15.6   15.8   15.8  1019.7  0.00  0.00   0.009   0.000   24.1    59   15.6   24.5  10.73  .0733    116    1    100.0    5 
26/09/17   0:20   15.6   15.6   15.6    93   14.4   5.0   NNE   0.42   8.0   NNE   15.6   15.8   15.8  1019.5  0.00  0.00   0.010   0.000   24.1    59   15.6   24.5  10.73  .0733    117    1    100.0    5 
26/09/17   0:25   15.6   15.6   15.6    93   14.4   5.0   NNE   0.42   9.0   NNE   15.6   15.8   15.8  1019.6  0.00  0.00   0.010   0.000   24.1    59   15.5   24.5  10.74  .0734    117    1    100.0    5 
26/09/17   0:30   15.5   15.6   15.5    93   14.4   4.0   NNE   0.33   6.0   NNE   15.5   15.7   15.7  1019.6  0.00  0.00   0.010   0.000   24.1    59   15.5   24.5  10.74  .0734    115    1    100.0    5 
26/09/17   0:35   15.5   15.5   15.5    93   14.4   4.0   NNE   0.33   9.0   NNE   15.5   15.7   15.7  1019.5  0.00  0.00   0.010   0.000   24.1    59   15.5   24.5  10.74  .0734    117    1    100.0    5 
26/09/17   0:40   15.5   15.5   15.4    93   14.4   4.0   NNE   0.33   9.0    NE   15.5   15.7   15.7  1019.6  0.00  0.00   0.010   0.000   24.1    59   15.5   24.5  10.74  .0734    117    1    100.0    5 
26/09/17   0:45   15.5   15.5   15.4    93   14.4   4.0   NNE   0.33   6.0   NNE   15.5   15.7   15.7  1019.6  0.00  0.00   0.010   0.000   24.1    59   15.5   24.5  10.74  .0734    117    1    100.0    5 
26/09/17   0:50   15.5   15.5   15.4    93   14.4   4.0   NNE   0.33   8.0   NNE   15.5   15.7   15.7  1019.6  0.00  0.00   0.010   0.000   24.1    59   15.5   24.5  10.74  .0734    116    1    100.0    5 
26/09/17   0:55   15.4   15.5   15.4    93   14.3   4.0   NNE   0.33   8.0   NNE   15.4   15.7   15.7  1019.7  0.00  0.00   0.010   0.000   24.0    59   15.5   24.4  10.74  .0734    117    1    100.0    5 
26/09/17   1:00   15.4   15.5   15.4    93   14.3   4.0   NNE   0.33   7.0   NNE   15.4   15.7   15.7  1019.7  0.00  0.00   0.010   0.000   24.0    59   15.5   24.4  10.74  .0734    116    1    100.0    5 
26/09/17   1:05   15.4   15.4   15.4    93   14.3   3.0   NNE   0.25   7.0   NNE   15.4   15.7   15.7  1019.6  0.00  0.00   0.010   0.000   24.0    59   15.5   24.4  10.74  .0734    117    1    100.0    5 
26/09/17   1:10   15.4   15.4   15.4    93   14.3   3.0   NNE   0.25   6.0   NNE   15.4   15.7   15.7  1019.7  0.00  0.00   0.010   0.000   24.0    59   15.5   24.4  10.74  .0734    116    1    100.0    5 
26/09/17   1:15   15.4   15.4   15.4    93   14.3   2.0   NNE   0.17   7.0   NNE   15.4   15.6   15.6  1019.7  0.00  0.00   0.010   0.000   24.0    59   15.5   24.4  10.74  .0734    116    1    100.0    5 
26/09/17   1:20   15.4   15.4   15.4    93   14.3   3.0   NNE   0.25   6.0   NNE   15.4   15.6   15.6  1019.7  0.00  0.00   0.010   0.000   24.0    59   15.5   24.4  10.74  .0734    117    1    100.0    5 
26/09/17   1:25   15.4   15.4   15.4    93   14.3   2.0   NNE   0.17   5.0   NNE   15.4   15.6   15.6  1019.7  0.00  0.00   0.010   0.000   24.0    59   15.5   24.4  10.74  .0734    117    1    100.0    5 
26/09/17   1:30   15.4   15.4   15.4    93   14.3   2.0   NNE   0.17   6.0   NNE   15.4   15.6   15.6  1019.8  0.00  0.00   0.010   0.000   24.0    59   15.5   24.4  10.74  .0734    118    1    100.0    5 
26/09/17   1:35   15.4   15.4   15.4    93   14.3   4.0   NNE   0.33   7.0   NNE   15.4   15.6   15.6  1019.8  0.00  0.00   0.010   0.000   23.9    60   15.7   24.4  10.95  .0734    117    1    100.0    5 
26/09/17   1:40   15.4   15.4   15.4    93   14.3   4.0   NNE   0.33   6.0   NNE   15.4   15.7   15.7  1019.8  0.00  0.00   0.010   0.000   23.9    60   15.7   24.4  10.95  .0734    115    1    100.0    5 
26/09/17   1:45   15.4   15.4   15.4    93   14.3   3.0   NNE   0.25   8.0   NNE   15.4   15.6   15.6  1019.8  0.00  0.00   0.010   0.000   23.9    60   15.7   24.4  10.95  .0734    117    1    100.0    5 
26/09/17   1:50   15.4   15.4   15.4    93   14.3   4.0   NNE   0.33   8.0   NNE   15.4   15.6   15.6  1019.8  0.00  0.00   0.010   0.000   23.9    60   15.7   24.4  10.95  .0734    116    1    100.0    5 
26/09/17   1:55   15.3   15.4   15.3    93   14.2   3.0   NNE   0.25   8.0   NNE   15.3   15.5   15.5  1019.8  0.00  0.00   0.010   0.000   23.9    60   15.7   24.4  10.95  .0734    117    1    100.0    5 
26/09/17   2:00   15.3   15.3   15.3    93   14.2   2.0   NNE   0.17   6.0   NNE   15.3   15.5   15.5  1019.8  0.00  0.00   0.010   0.000   23.9    60   15.7   24.4  10.95  .0734    117    1    100.0    5 
26/09/17   2:05   15.4   15.4   15.3    93   14.3   4.0   NNE   0.33   8.0   NNE   15.4   15.6   15.6  1019.8  0.00  0.00   0.010   0.000   23.9    60   15.7   24.4  10.95  .0734    116    1    100.0    5 
26/09/17   2:10   15.4   15.4   15.3    93   14.3   5.0   NNE   0.42   8.0   NNE   15.3   15.6   15.5  1019.9  0.00  0.00   0.010   0.000   23.9    60   15.7   24.4  10.95  .0734    117    1    100.0    5 
26/09/17   2:15   15.3   15.4   15.3    93   14.2   4.0   NNE   0.33   6.0   NNE   15.3   15.5   15.5  1019.8  0.00  0.00   0.010   0.000   23.9    60   15.7   24.4  10.95  .0734    117    1    100.0    5 
26/09/17   2:20   15.3   15.3   15.3    93   14.2   4.0   NNE   0.33   7.0   NNE   15.3   15.5   15.5  1019.8  0.00  0.00   0.010   0.000   23.9    60   15.7   24.4  10.95  .0734    116    1    100.0    5 
26/09/17   2:25   15.3   15.3   15.3    93   14.2   4.0   NNE   0.33   7.0   NNE   15.3   15.5   15.5  1019.8  0.00  0.00   0.010   0.000   23.9    60   15.7   24.4  10.95  .0734    116    1    100.0    5 
26/09/17   2:30   15.3   15.3   15.3    93   14.2   3.0   NNE   0.25   7.0   NNE   15.3   15.5   15.5  1019.8  0.00  0.00   0.010   0.000   23.9    60   15.7   24.4  10.95  .0734    117    1    100.0    5 
26/09/17   2:35   15.3   15.3   15.3    93   14.2   5.0   NNE   0.42   9.0   NNE   15.3   15.5   15.4  1019.7  0.00  0.00   0.010   0.000   23.9    60   15.7   24.4  10.95  .0734    115    1    100.0    5 
26/09/17   2:40   15.3   15.3   15.3    93   14.2   3.0   NNE   0.25   7.0   NNE   15.3   15.4   15.4  1019.8  0.00  0.00   0.011   0.000   23.9    60   15.7   24.4  10.95  .0734    115    1    100.0    5 
26/09/17   2:45   15.3   15.3   15.3    93   14.2   3.0   NNE   0.25   7.0   NNE   15.3   15.4   15.4  1019.7  0.00  0.00   0.011   0.000   23.8    60   15.6   24.3  10.95  .0734    117    1    100.0    5 
26/09/17   2:50   15.3   15.3   15.2    93   14.2   4.0   NNE   0.33   7.0   NNE   15.3   15.4   15.4  1019.7  0.00  0.00   0.011   0.000   23.8    60   15.6   24.3  10.95  .0734    117    1    100.0    5 
26/09/17   2:55   15.2   15.3   15.2    93   14.1   3.0   NNE   0.25   6.0   NNE   15.2   15.4   15.4  1019.8  0.00  0.00   0.011   0.000   23.8    60   15.6   24.3  10.95  .0734    116    1    100.0    5 
26/09/17   3:00   15.2   15.2   15.2    93   14.0   3.0   NNE   0.25   5.0   NNE   15.2   15.3   15.3  1019.7  0.00  0.00   0.011   0.000   23.8    60   15.6   24.3  10.95  .0734    115    1    100.0    5 
26/09/17   3:05   15.2   15.2   15.2    93   14.0   4.0   NNE   0.33   7.0   NNE   15.2   15.3   15.3  1019.6  0.00  0.00   0.011   0.000   23.8    60   15.6   24.3  10.95  .0734    117    1    100.0    5 
26/09/17   3:10   15.1   15.2   15.1    93   14.0   2.0   NNE   0.17   5.0   NNE   15.1   15.3   15.3  1019.7  0.00  0.00   0.011   0.000   23.8    60   15.6   24.3  10.95  .0734    116    1    100.0    5 
26/09/17   3:15   15.1   15.2   15.1    93   14.0   1.0   NNE   0.08   4.0   NNE   15.1   15.3   15.3  1019.7  0.00  0.00   0.011   0.000   23.8    60   15.6   24.3  10.95  .0734    116    1    100.0    5 
26/09/17   3:20   15.1   15.1   15.1    93   13.9   1.0   NNE   0.08   4.0   NNE   15.1   15.2   15.2  1019.7  0.00  0.00   0.011   0.000   23.8    60   15.6   24.3  10.95  .0734    117    1    100.0    5 
26/09/17   3:25   15.1   15.1   15.1    93   13.9   1.0   NNE   0.08   3.0   NNE   15.1   15.2   15.2  1019.8  0.00  0.00   0.011   0.000   23.8    60   15.6   24.3  10.95  .0734    117    1    100.0    5 
26/09/17   3:30   15.0   15.1   15.0    93   13.9   1.0   NNE   0.08   3.0   NNE   15.0   15.2   15.2  1019.8  0.00  0.00   0.012   0.000   23.8    60   15.6   24.3  10.95  .0734    117    1    100.0    5 
26/09/17   3:35   15.0   15.0   15.0    94   14.0   1.0   NNE   0.08   5.0   NNE   15.0   15.2   15.2  1019.9  0.00  0.00   0.012   0.000   23.8    60   15.5   24.3  10.95  .0734    117    1    100.0    5 
26/09/17   3:40   15.0   15.0   15.0    94   14.0   0.0   NNE   0.00   2.0   NNE   15.0   15.2   15.2  1019.9  0.00  0.00   0.012   0.000   23.8    60   15.5   24.3  10.95  .0734    116    1    100.0    5 
26/09/17   3:45   15.0   15.1   15.0    94   14.0   0.0   NNE   0.00   1.0   NNE   15.0   15.2   15.2  1019.9  0.00  0.00   0.012   0.000   23.8    60   15.5   24.3  10.95  .0735    117    1    100.0    5 
26/09/17   3:50   15.0   15.1   15.0    94   14.0   0.0   NNE   0.00   1.0   NNE   15.0   15.2   15.2  1019.9  0.00  0.00   0.012   0.000   23.8    60   15.5   24.3  10.95  .0734    117    1    100.0    5 
26/09/17   3:55   15.0   15.1   15.0    94   14.0   0.0   NNE   0.00   2.0   NNE   15.0   15.2   15.2  1020.0  0.00  0.00   0.012   0.000   23.8    60   15.5   24.3  10.95  .0735    117    1    100.0    5 
26/09/17   4:00   15.0   15.1   15.0    94   14.0   0.0   NNE   0.00   1.0   NNE   15.0   15.2   15.2  1019.9  0.00  0.00   0.012   0.000   23.8    60   15.5   24.3  10.95  .0734    116    1    100.0    5 
26/09/17   4:05   15.0   15.1   15.0    94   14.0   0.0   ---   0.00   0.0   ---   15.0   15.2   15.2  1019.9  0.00  0.00   0.012   0.000   23.8    60   15.5   24.3  10.95  .0734    114    1    100.0    5 
26/09/17   4:10   15.0   15.0   15.0    94   14.0   0.0   ---   0.00   0.0   ---   15.0   15.2   15.2  1019.8  0.00  0.00   0.012   0.000   23.7    60   15.5   24.2  10.96  .0735    116    1    100.0    5 
26/09/17   4:15   15.0   15.0   15.0    94   14.0   1.0   NNE   0.08   3.0   NNE   15.0   15.2   15.2  1019.9  0.00  0.00   0.012   0.000   23.7    60   15.5   24.2  10.96  .0735    117    1    100.0    5 
26/09/17   4:20   15.0   15.0   15.0    94   14.0   1.0   NNE   0.08   2.0   NNE   15.0   15.2   15.2  1019.9  0.00  0.00   0.012   0.000   23.7    60   15.5   24.2  10.96  .0735    116    1    100.0    5 
26/09/17   4:25   14.9   15.0   14.9    94   14.0   2.0   NNE   0.17   4.0   NNE   14.9   15.2   15.2  1019.9  0.00  0.00   0.012   0.000   23.7    60   15.4   24.1  10.96  .0735    116    1    100.0    5 
26/09/17   4:30   14.9   14.9   14.9    94   14.0   2.0   NNE   0.17   5.0   NNE   14.9   15.2   15.2  1019.9  0.00  0.00   0.012   0.000   23.7    60   15.4   24.1  10.96  .0735    115    1    100.0    5 
26/09/17   4:35   14.9   14.9   14.9    94   14.0   3.0   NNE   0.25   6.0   NNE   14.9   15.2   15.2  1020.0  0.00  0.00   0.012   0.000   23.7    60   15.4   24.1  10.96  .0735    117    1    100.0    5 
26/09/17   4:40   14.9   14.9   14.9    94   14.0   1.0   NNE   0.08   5.0   NNE   14.9   15.2   15.2  1020.1  0.00  0.00   0.012   0.000   23.7    60   15.4   24.1  10.96  .0735    118    1    100.0    5 
26/09/17   4:45   14.9   14.9   14.9    94   14.0   2.0   NNE   0.17   5.0   NNE   14.9   15.2   15.2  1020.1  0.00  0.00   0.012   0.000   23.7    60   15.4   24.1  10.96  .0735    117    1    100.0    5 
26/09/17   4:50   14.9   14.9   14.9    94   13.9   2.0   NNE   0.17   5.0   NNE   14.9   15.1   15.1  1020.1  0.00  0.00   0.012   0.000   23.6    60   15.4   24.1  10.96  .0735    116    1    100.0    5 
26/09/17   4:55   14.9   14.9   14.9    94   13.9   2.0   NNE   0.17   6.0   NNE   14.9   15.1   15.1  1020.1  0.00  0.00   0.012   0.000   23.7    60   15.4   24.1  10.96  .0735    117    1    100.0    5 
26/09/17   5:00   14.8   14.9   14.8    94   13.9   2.0   NNE   0.17   4.0   NNE   14.8   15.0   15.0  1020.1  0.00  0.00   0.012   0.000   23.6    60   15.4   24.1  10.96  .0735    116    1    100.0    5 
26/09/17   5:05   14.8   14.8   14.8    94   13.9   3.0   NNE   0.25   7.0   NNE   14.8   15.0   15.0  1020.1  0.00  0.00   0.012   0.000   23.7    60   15.4   24.1  10.96  .0735    117    1    100.0    5 
26/09/17   5:10   14.8   14.8   14.8    94   13.8   3.0   NNE   0.25   6.0   NNE   14.8   14.9   14.9  1020.1  0.00  0.00   0.012   0.000   23.6    60   15.4   24.1  10.96  .0735    116    1    100.0    5 
26/09/17   5:15   14.8   14.8   14.7    94   13.8   3.0   NNE   0.25   7.0   NNE   14.8   14.9   14.9  1020.1  0.00  0.00   0.012   0.000   23.6    60   15.4   24.1  10.96  .0735    117    1    100.0    5 
26/09/17   5:20   14.7   14.8   14.7    94   13.8   3.0   NNE   0.25   6.0   NNE   14.7   14.9   14.9  1020.1  0.00  0.00   0.013   0.000   23.6    60   15.4   24.1  10.96  .0735    114    1    100.0    5 
26/09/17   5:25   14.7   14.7   14.7    94   13.8   3.0   NNE   0.25   6.0   NNE   14.7   14.9   14.9  1020.1  0.00  0.00   0.013   0.000   23.6    60   15.3   24.0  10.96  .0735    117    1    100.0    5 
26/09/17   5:30   14.7   14.7   14.7    94   13.7   3.0   NNE   0.25   7.0   NNE   14.7   14.8   14.8  1020.1  0.00  0.00   0.013   0.000   23.6    60   15.3   24.0  10.96  .0735    116    1    100.0    5 
26/09/17   5:35   14.7   14.7   14.7    94   13.7   4.0   NNE   0.33   6.0   NNE   14.7   14.8   14.8  1020.1  0.00  0.00   0.013   0.000   23.6    60   15.4   24.1  10.96  .0735    117    1    100.0    5 
26/09/17   5:40   14.7   14.7   14.7    94   13.7   3.0   NNE   0.25   7.0   NNE   14.7   14.8   14.8  1020.1  0.00  0.00   0.013   0.000   23.6    60   15.3   24.0  10.96  .0735    117    1    100.0    5 
26/09/17   5:45   14.6   14.7   14.6    94   13.7   4.0   NNE   0.33   8.0   NNE   14.6   14.8   14.8  1020.1  0.00  0.00   0.013   0.000   23.6    60   15.3   24.0  10.96  .0735    117    1    100.0    5 
26/09/17   5:50   14.6   14.7   14.6    94   13.7   4.0   NNE   0.33   7.0   NNE   14.6   14.8   14.8  1020.0  0.00  0.00   0.013   0.000   23.6    60   15.3   24.0  10.96  .0735    117    1    100.0    5 
26/09/17   5:55   14.6   14.6   14.6    94   13.6   4.0   NNE   0.33   6.0   NNE   14.6   14.7   14.7  1020.0  0.00  0.00   0.013   0.000   23.5    60   15.3   23.9  10.96  .0735    117    1    100.0    5 
26/09/17   6:00   14.6   14.6   14.5    94   13.6   4.0   NNE   0.33   8.0   NNE   14.6   14.7   14.7  1020.0  0.00  0.00   0.013   0.000   23.6    60   15.3   24.0  10.96  .0735    117    1    100.0    5 
26/09/17   6:05   14.5   14.5   14.5    94   13.5   5.0   NNE   0.42   8.0   NNE   14.3   14.7   14.4  1019.9  0.00  0.00   0.013   0.000   23.5    60   15.3   23.9  10.96  .0735    117    1    100.0    5 
26/09/17   6:10   14.4   14.5   14.4    94   13.5   5.0   NNE   0.42   9.0   NNE   14.2   14.6   14.4  1019.9  0.00  0.00   0.014   0.000   23.5    60   15.3   23.9  10.96  .0735    117    1    100.0    5 
26/09/17   6:15   14.4   14.4   14.4    94   13.4   3.0   NNE   0.25   6.0   NNE   14.4   14.6   14.6  1019.9  0.00  0.00   0.014   0.000   23.5    60   15.3   23.9  10.96  .0735    116    1    100.0    5 
26/09/17   6:20   14.3   14.4   14.3    94   13.4   4.0   NNE   0.33   6.0   NNE   14.3   14.4   14.4  1019.9  0.00  0.00   0.014   0.000   23.5    60   15.3   23.9  10.96  .0735    116    1    100.0    5 
26/09/17   6:25   14.3   14.3   14.3    95   13.5   3.0   NNE   0.25   6.0   NNE   14.3   14.5   14.5  1019.9  0.00  0.00   0.014   0.000   23.5    60   15.3   23.9  10.96  .0735    116    1    100.0    5 
26/09/17   6:30   14.3   14.3   14.3    95   13.5   3.0   NNE   0.25   6.0   NNE   14.3   14.4   14.4  1020.0  0.00  0.00   0.014   0.000   23.4    60   15.2   23.8  10.97  .0736    117    1    100.0    5 
26/09/17   6:35   14.2   14.3   14.2    95   13.4   3.0   NNE   0.25   6.0   NNE   14.2   14.4   14.4  1020.1  0.00  0.00   0.014   0.000   23.4    60   15.2   23.8  10.97  .0736    117    1    100.0    5 
26/09/17   6:40   14.2   14.3   14.2    95   13.4   3.0   NNE   0.25   7.0   NNE   14.2   14.4   14.4  1020.1  0.00  0.00   0.014   0.000   23.4    60   15.2   23.8  10.97  .0736    117    1    100.0    5 
26/09/17   6:45   14.3   14.3   14.2    95   13.5   2.0   NNE   0.17   5.0   NNE   14.3   14.4   14.4  1020.2  0.00  0.00   0.014   0.000   23.4    60   15.2   23.8  10.97  .0736    117    1    100.0    5 
26/09/17   6:50   14.3   14.3   14.3    95   13.5   2.0   NNE   0.17   5.0   NNE   14.3   14.4   14.4  1020.2  0.00  0.00   0.014   0.000   23.4    60   15.2   23.8  10.97  .0736    116    1    100.0    5 
26/09/17   6:55   14.3   14.3   14.3    95   13.5   2.0   NNE   0.17   6.0   NNE   14.3   14.5   14.5  1020.2  0.00  0.00   0.014   0.000   23.4    60   15.2   23.8  10.97  .0736    117    1    100.0    5 
26/09/17   7:00   14.3   14.3   14.3    95   13.5   2.0   NNE   0.17   4.0   NNE   14.3   14.5   14.5  1020.3  0.00  0.00   0.014   0.000   23.4    60   15.2   23.8  10.97  .0736    116    1    100.0    5 
26/09/17   7:05   14.3   14.4   14.3    95   13.5   2.0   NNE   0.17   4.0   NNE   14.3   14.5   14.5  1020.3  0.00  0.00   0.014   0.000   23.4    60   15.2   23.8  10.97  .0736    117    1    100.0    5 
26/09/17   7:10   14.4   14.4   14.3    95   13.6   1.0   NNE   0.08   4.0   NNE   14.4   14.6   14.6  1020.3  0.00  0.00   0.014   0.000   23.3    60   15.1   23.7  10.97  .0736    117    1    100.0    5 
26/09/17   7:15   14.4   14.4   14.4    95   13.6   2.0   NNE   0.17   4.0   NNE   14.4   14.6   14.6  1020.4  0.00  0.00   0.014   0.000   23.3    60   15.1   23.7  10.97  .0736    116    1    100.0    5 
26/09/17   7:20   14.4   14.4   14.4    95   13.6   2.0   NNE   0.17   4.0   NNE   14.4   14.6   14.6  1020.4  0.00  0.00   0.014   0.000   23.3    60   15.1   23.7  10.97  .0736    116    1    100.0    5 
26/09/17   7:25   14.4   14.4   14.4    95   13.6   3.0   NNE   0.25   6.0   NNE   14.4   14.6   14.6  1020.5  0.01  0.00   0.014   0.000   23.3    60   15.1   23.7  10.97  .0736    117    1    100.0    5 
26/09/17   7:30   14.4   14.4   14.4    95   13.6   2.0   NNE   0.17   5.0     E   14.4   14.6   14.6  1020.4  0.00  0.00   0.014   0.000   23.3    60   15.1   23.7  10.97  .0736    117    1    100.0    5 
26/09/17   7:35   14.4   14.4   14.4    95   13.7   2.0     E   0.17   6.0     E   14.4   14.6   14.6  1020.5  0.00  0.00   0.014   0.000   23.3    60   15.1   23.7  10.97  .0736    116    1    100.0    5 
26/09/17   7:40   14.4   14.4   14.4    95   13.7   3.0     E   0.25   7.0   ENE   14.4   14.6   14.6  1020.5  0.00  0.00   0.014   0.000   23.4    60   15.2   23.8  10.97  .0736    117    1    100.0    5 
26/09/17   7:45   14.4   14.4   14.4    95   13.7   3.0   NNE   0.25   7.0   NNE   14.4   14.6   14.6  1020.6  0.00  0.00   0.014   0.000   23.4    60   15.2   23.8  10.97  .0736    115    1    100.0    5 
26/09/17   7:50   14.4   14.5   14.4    95   13.7   2.0   NNE   0.17   5.0   NNE   14.4   14.6   14.6  1020.6  0.00  0.00   0.014   0.000   23.4    60   15.2   23.8  10.97  .0736    118    1    100.0    5 
26/09/17   7:55   14.5   14.5   14.4    95   13.7   1.0   NNE   0.08   4.0   NNE   14.5   14.7   14.7  1020.6  0.00  0.00   0.013   0.000   23.4    60   15.2   23.8  10.97  .0736    116    1    100.0    5 
26/09/17   8:00   14.6   14.6   14.5    95   13.8   1.0    NE   0.08   3.0   NNE   14.6   14.7   14.7  1020.6  0.00  0.00   0.013   0.000   23.5    60   15.3   23.9  10.96  .0736    116    1    100.0    5 
26/09/17   8:05   14.7   14.7   14.6    95   13.9   1.0    NE   0.08   3.0    NE   14.7   14.8   14.8  1020.6  0.00  0.00   0.013   0.000   23.5    60   15.3   23.9  10.96  .0736    114    1    100.0    5 
26/09/17   8:10   14.8   14.8   14.7    95   14.0   1.0    NE   0.08   4.0    NE   14.8   15.0   15.0  1020.6  0.00  0.00   0.012   0.000   23.5    59   15.0   23.9  10.78  .0736    117    1    100.0    5 
26/09/17   8:15   14.8   14.8   14.8    95   14.0   1.0    NE   0.08   3.0    NE   14.8   15.1   15.1  1020.6  0.00  0.00   0.012   0.000   23.5    59   15.0   23.9  10.78  .0736    116    1    100.0    5 
26/09/17   8:20   14.9   14.9   14.8    95   14.2   0.0    NE   0.00   1.0    NE   14.9   15.2   15.2  1020.7  0.00  0.00   0.012   0.000   23.6    59   15.1   23.9  10.77  .0736    117    1    100.0    5 
26/09/17   8:25   15.0   15.0   14.9    96   14.4   1.0    NE   0.08   2.0    NE   15.0   15.2   15.2  1020.7  0.00  0.00   0.012   0.000   23.6    59   15.1   23.9  10.77  .0736    117    1    100.0    5 
26/09/17   8:30   15.1   15.1   15.0    95   14.3   1.0    NE   0.08   3.0    NE   15.1   15.3   15.3  1020.8  0.00  0.00   0.011   0.000   23.6    59   15.1   23.9  10.77  .0736    117    1    100.0    5 
26/09/17   8:35   15.2   15.2   15.1    95   14.4   1.0    NE   0.08   2.0    NE   15.2   15.4   15.4  1020.9  0.00  0.00   0.011   0.000   23.5    59   15.0   23.9  10.78  .0736    117    1    100.0    5 
26/09/17   8:40   15.3   15.3   15.2    95   14.5   0.0    NE   0.00   4.0    NE   15.3   15.5   15.5  1020.9  0.00  0.00   0.011   0.000   23.4    59   15.0   23.8  10.78  .0736    117    1    100.0    5 
26/09/17   8:45   15.3   15.3   15.3    95   14.5   1.0    NE   0.08   3.0    NE   15.3   15.6   15.6  1020.9  0.00  0.00   0.010   0.000   23.4    59   14.9   23.7  10.79  .0737    117    1    100.0    5 
26/09/17   8:50   15.4   15.4   15.3    95   14.6   1.0    NE   0.08   4.0    NE   15.4   15.6   15.6  1020.9  0.00  0.00   0.010   0.000   23.3    59   14.9   23.7  10.79  .0737    115    1    100.0    5 
26/09/17   8:55   15.4   15.4   15.4    95   14.6   2.0    NE   0.17   4.0    NE   15.4   15.7   15.7  1020.9  0.00  0.00   0.010   0.000   23.3    59   14.8   23.6  10.79  .0737    118    1    100.0    5 
26/09/17   9:00   15.5   15.5   15.4    95   14.7   3.0    NE   0.25   6.0    NE   15.5   15.7   15.7  1021.0  0.00  0.00   0.010   0.000   23.3    59   14.8   23.6  10.79  .0737    114    1    100.0    5 
26/09/17   9:05   15.5   15.5   15.5    95   14.7   2.0    NE   0.17   6.0   NNE   15.5   15.7   15.7  1021.0  0.00  0.00   0.010   0.000   23.3    59   14.8   23.6  10.79  .0737    117    1    100.0    5 
26/09/17   9:10   15.6   15.6   15.5    95   14.8   4.0   NNE   0.33   7.0   NNE   15.6   15.8   15.8  1021.0  0.00  0.00   0.010   0.000   23.2    59   14.8   23.5  10.80  .0737    117    1    100.0    5 
26/09/17   9:15   15.6   15.6   15.5    94   14.6   5.0   NNE   0.42   7.0   NNE   15.6   15.8   15.8  1021.0  0.00  0.00   0.010   0.000   23.2    59   14.8   23.5  10.80  .0737    115    1    100.0    5 
26/09/17   9:20   15.6   15.6   15.6    94   14.6   4.0   NNE   0.33   6.0   NNE   15.6   15.8   15.8  1021.1  0.00  0.00   0.010   0.000   23.2    59   14.7   23.4  10.80  .0738    116    1    100.0    5 
26/09/17   9:25   15.6   15.6   15.6    94   14.6   4.0   NNE   0.33   7.0     N   15.6   15.8   15.8  1021.1  0.00  0.00   0.009   0.000   23.1    59   14.7   23.4  10.81  .0738    117    1    100.0    5 
26/09/17   9:30   15.7   15.7   15.6    95   14.9   2.0   NNE   0.17   5.0   NNE   15.7   15.9   15.9  1021.2  0.00  0.00   0.009   0.000   23.1    59   14.7   23.4  10.81  .0738    113    1     99.1    5 
26/09/17   9:35   15.8   15.8   15.7    95   15.0   2.0   NNE   0.17   7.0   NNE   15.8   16.0   16.0  1021.2  0.00  0.00   0.009   0.000   23.1    59   14.6   23.3  10.81  .0738    116    1    100.0    5 
26/09/17   9:40   15.8   15.8   15.8    94   14.9   4.0   NNE   0.33   9.0   NNE   15.8   16.1   16.1  1021.2  0.00  0.00   0.009   0.000   23.1    59   14.6   23.3  10.81  .0738    117    1    100.0    5 
26/09/17   9:45   15.9   15.9   15.8    94   14.9   4.0   NNE   0.33  10.0   NNE   15.9   16.1   16.1  1021.3  0.00  0.00   0.008   0.000   23.1    59   14.6   23.3  10.81  .0738    117    1    100.0    5 
26/09/17   9:50   15.9   15.9   15.9    94   15.0   4.0   NNE   0.33  10.0     N   15.9   16.2   16.2  1021.3  0.00  0.00   0.008   0.000   23.1    59   14.6   23.3  10.81  .0738    117    1    100.0    5 
26/09/17   9:55   16.0   16.0   15.9    94   15.0   6.0   NNE   0.50  10.0   NNE   15.9   16.3   16.2  1021.3  0.00  0.00   0.008   0.000   23.1    59   14.6   23.3  10.81  .0738    116    1    100.0    5 
26/09/17  10:00   16.1   16.1   16.0    94   15.1   5.0   NNE   0.42   8.0   NNE   16.1   16.3   16.3  1021.3  0.00  0.00   0.008   0.000   23.1    59   14.6   23.3  10.81  .0738    116    1    100.0    5 
26/09/17  10:05   16.2   16.2   16.1    94   15.2   3.0     N   0.25   5.0     N   16.2   16.4   16.4  1021.3  0.00  0.00   0.008   0.000   23.1    59   14.6   23.3  10.81  .0738    116    1    100.0    5 
26/09/17  10:10   16.3   16.3   16.2    94   15.3   5.0     N   0.42   9.0     N   16.3   16.6   16.6  1021.3  0.00  0.00   0.007   0.000   23.1    59   14.6   23.3  10.81  .0738    117    1    100.0    5 
26/09/17  10:15   16.4   16.4   16.3    94   15.4   6.0   NNE   0.50  11.0     N   16.3   16.7   16.7  1021.3  0.00  0.00   0.007   0.000   23.1    59   14.6   23.3  10.81  .0738    117    1    100.0    5 
26/09/17  10:20   16.7   16.7   16.4    94   15.7   4.0   NNE   0.33  11.0   NNE   16.7   17.1   17.1  1021.3  0.00  0.00   0.006   0.000   23.1    59   14.6   23.3  10.81  .0738    117    1    100.0    5 
26/09/17  10:25   17.1   17.1   16.7    94   16.1   6.0   NNE   0.50  11.0   NNE   17.1   17.4   17.4  1021.4  0.00  0.00   0.004   0.000   23.1    60   14.9   23.4  10.98  .0738    117    1    100.0    5 
26/09/17  10:30   17.4   17.4   17.1    93   16.3   6.0   NNE   0.50   9.0   NNE   17.4   17.9   17.9  1021.4  0.00  0.00   0.003   0.000   23.1    60   14.9   23.4  10.98  .0738    117    1    100.0    5 
26/09/17  10:35   17.8   17.8   17.4    92   16.5   6.0   NNE   0.50  11.0   NNE   17.8   18.3   18.3  1021.4  0.00  0.00   0.002   0.000   23.1    60   14.9   23.4  10.98  .0738    116    1    100.0    5 
26/09/17  10:40   17.9   17.9   17.8    91   16.5   7.0   NNE   0.58  12.0    NE   17.9   18.4   18.4  1021.3  0.00  0.00   0.001   0.000   23.2    60   15.0   23.5  10.98  .0738    115    1    100.0    5 
26/09/17  10:45   17.8   17.9   17.8    90   16.2   8.0   NNE   0.67  13.0   NNE   17.4   18.3   17.8  1021.3  0.00  0.00   0.002   0.000   23.2    60   15.0   23.6  10.97  .0737    117    1    100.0    5 
26/09/17  10:50   17.8   17.9   17.8    90   16.1   6.0    NE   0.50  11.0   NNE   17.8   18.2   18.2  1021.3  0.00  0.00   0.002   0.000   23.2    60   15.0   23.6  10.97  .0737    116    1    100.0    5 
26/09/17  10:55   17.9   17.9   17.8    90   16.3   6.0   NNE   0.50  10.0   NNE   17.9   18.4   18.4  1021.2  0.00  0.00   0.001   0.000   23.3    60   15.1   23.7  10.97  .0737    117    1    100.0    5 
26/09/17  11:00   18.2   18.2   17.9    90   16.6   6.0    NE   0.50  10.0    NE   18.2   18.8   18.8  1021.2  0.00  0.00   0.000   0.000   23.3    60   15.1   23.7  10.97  .0737    118    1    100.0    5 
26/09/17  11:05   18.4   18.4   18.2    89   16.5   7.0   NNE   0.58  11.0   NNE   18.4   18.9   18.9  1021.1  0.00  0.00   0.000   0.000   23.4    60   15.2   23.8  10.97  .0737    116    1    100.0    5 
26/09/17  11:10   18.6   18.6   18.4    89   16.7   6.0   NNE   0.50  11.0   NNE   18.6   19.2   19.2  1021.1  0.00  0.00   0.000   0.001   23.4    60   15.2   23.8  10.97  .0736    117    1    100.0    5 
26/09/17  11:15   18.8   18.8   18.6    88   16.8   7.0   ENE   0.58  11.0   ENE   18.8   19.5   19.5  1021.2  0.00  0.00   0.000   0.002   23.4    60   15.2   23.8  10.97  .0736    117    1    100.0    5 
26/09/17  11:20   19.0   19.0   18.8    87   16.8   6.0    NE   0.50  12.0    NE   19.0   19.7   19.7  1021.1  0.00  0.00   0.000   0.002   23.5    60   15.3   23.9  10.96  .0736    117    1    100.0    5 
26/09/17  11:25   19.0   19.1   19.0    86   16.6   7.0    NE   0.58  11.0    NE   19.0   19.6   19.6  1021.1  0.00  0.00   0.000   0.002   23.5    60   15.3   23.9  10.96  .0736    117    1    100.0    5 
26/09/17  11:30   19.2   19.2   19.1    86   16.8   5.0   NNE   0.42   9.0    NE   19.2   19.9   19.9  1021.2  0.00  0.00   0.000   0.003   23.6    60   15.3   24.0  10.96  .0736    117    1    100.0    5 
26/09/17  11:35   19.4   19.4   19.2    85   16.9   5.0   NNE   0.42  11.0   NNE   19.4   20.2   20.2  1021.2  0.00  0.00   0.000   0.004   23.6    60   15.4   24.1  10.96  .0736    117    1    100.0    5 
26/09/17  11:40   19.7   19.7   19.4    85   17.1   3.0    NE   0.25   8.0    NE   19.7   20.5   20.5  1021.1  0.00  0.00   0.000   0.005   23.7    60   15.4   24.1  10.96  .0736    117    1    100.0    5 
26/09/17  11:45   20.2   20.2   19.8    84   17.4   2.0   ENE   0.17   7.0   ENE   20.2   21.0   21.0  1021.1  0.00  0.00   0.000   0.006   23.7    60   15.5   24.2  10.96  .0736    117    1    100.0    5 
26/09/17  11:50   20.7   20.7   20.2    83   17.7   2.0     E   0.17   8.0     E   20.7   21.6   21.6  1021.1  0.00  0.00   0.000   0.008   23.7    60   15.5   24.2  10.96  .0736    117    1    100.0    5 
26/09/17  11:55   21.2   21.2   20.7    82   18.0   4.0     E   0.33   8.0   ESE   21.2   21.9   21.9  1021.2  0.00  0.00   0.000   0.010   23.8    60   15.5   24.3  10.95  .0735    116    1    100.0    5 
26/09/17  12:00   21.8   21.8   21.3    81   18.4   6.0   ESE   0.50   9.0     E   21.8   22.6   22.6  1021.2  0.00  0.00   0.000   0.012   23.8    60   15.6   24.3  10.95  .0735    116    1    100.0    5 
26/09/17  12:05   22.3   22.3   21.9    79   18.5   7.0   ESE   0.58   8.0     E   22.3   23.1   23.1  1021.1  0.00  0.00   0.000   0.014   23.9    60   15.7   24.4  10.95  .0735    118    1    100.0    5 
26/09/17  12:10   22.7   22.7   22.3    78   18.7   6.0   ESE   0.50   8.0   ESE   22.7   23.6   23.6  1021.1  0.00  0.00   0.000   0.015   23.9    60   15.7   24.4  10.95  .0735    117    1    100.0    5 
26/09/17  12:15   22.9   22.9   22.7    76   18.5   7.0   ESE   0.58   9.0   ESE   22.9   23.9   23.9  1021.2  0.00  0.00   0.000   0.016   23.9    60   15.7   24.4  10.95  .0735    117    1    100.0    5 
26/09/17  12:20   23.1   23.1   22.9    75   18.4   6.0   ESE   0.50   9.0   ESE   23.1   24.0   24.0  1021.2  0.00  0.00   0.000   0.016   24.1    60   15.8   24.5  10.94  .0734    117    1    100.0    5 
26/09/17  12:25   23.3   23.3   23.1    75   18.6   6.0   ESE   0.50   8.0   ESE   23.3   24.3   24.3  1021.2  0.00  0.00   0.000   0.017   24.1    60   15.8   24.5  10.94  .0734    116    1    100.0    5 
26/09/17  12:30   23.4   23.4   23.3    74   18.5   5.0   ESE   0.42   7.0   ESE   23.4   24.5   24.5  1021.2  0.00  0.00   0.000   0.018   24.1    60   15.9   24.6  10.93  .0734    117    1    100.0    5 
26/09/17  12:35   23.5   23.5   23.4    73   18.4   5.0   ESE   0.42   7.0   ESE   23.5   24.5   24.5  1021.2  0.00  0.00   0.000   0.018   24.2    60   15.9   24.6  10.93  .0734    117    1    100.0    5 
26/09/17  12:40   23.6   23.6   23.5    73   18.4   5.0   ESE   0.42   7.0   ESE   23.6   24.6   24.6  1021.2  0.00  0.00   0.000   0.018   24.2    60   16.0   24.7  10.93  .0734    116    1    100.0    5 
26/09/17  12:45   23.6   23.6   23.6    73   18.5   4.0   ESE   0.33   6.0   ESE   23.6   24.7   24.7  1021.2  0.00  0.00   0.000   0.018   24.3    60   16.0   24.7  10.92  .0734    117    1    100.0    5 
26/09/17  12:50   23.6   23.6   23.6    73   18.5   4.0   ESE   0.33   6.0   ESE   23.6   24.7   24.7  1021.2  0.00  0.00   0.000   0.018   24.3    60   16.1   24.7  10.92  .0734    117    1    100.0    5 
26/09/17  12:55   23.4   23.6   23.4    72   18.1   4.0   ESE   0.33   5.0   ESE   23.4   24.3   24.3  1021.2  0.00  0.00   0.000   0.018   24.4    60   16.1   24.8  10.91  .0733    115    1    100.0    5 
26/09/17  13:00   23.1   23.3   23.1    73   18.0   5.0   ESE   0.42   6.0   ESE   23.1   23.9   23.9  1021.1  0.00  0.00   0.000   0.016   24.4    60   16.2   24.8  10.91  .0733    116    1    100.0    5 
26/09/17  13:05   23.2   23.2   23.1    73   18.1   5.0   ESE   0.42   7.0   ESE   23.2   24.1   24.1  1021.2  0.00  0.00   0.000   0.017   24.5    60   16.2   24.9  10.91  .0733    117    1    100.0    5 
26/09/17  13:10   23.3   23.3   23.2    73   18.2   5.0    SE   0.42   7.0    SE   23.3   24.2   24.2  1021.1  0.00  0.00   0.000   0.017   24.5    60   16.2   24.9  10.91  .0733    116    1    100.0    5 
26/09/17  13:15   23.2   23.3   23.2    73   18.1   5.0    SE   0.42   6.0    SE   23.2   24.2   24.2  1021.1  0.00  0.00   0.000   0.017   24.6    60   16.3   24.9  10.90  .0733    117    1    100.0    5 
26/09/17  13:20   23.1   23.2   23.1    72   17.8   5.0    SE   0.42   7.0    SE   23.1   23.9   23.9  1021.1  0.00  0.00   0.000   0.017   24.7    60   16.4   25.1  10.89  .0732    116    1    100.0    5 
26/09/17  13:25   23.1   23.1   23.1    73   18.0   4.0    SE   0.33   6.0    SE   23.1   23.9   23.9  1021.1  0.00  0.00   0.000   0.016   24.7    60   16.4   25.1  10.89  .0732    117    1    100.0    5 
26/09/17  13:30   23.2   23.2   23.1    73   18.1   5.0    SE   0.42   6.0    SE   23.2   24.1   24.1  1021.0  0.00  0.00   0.000   0.017   24.7    60   16.4   25.2  10.89  .0732    117    1    100.0    5 
26/09/17  13:35   23.4   23.4   23.2    71   17.9   5.0    SE   0.42   7.0    SE   23.4   24.4   24.4  1021.0  0.00  0.00   0.000   0.018   24.8    60   16.5   25.2  10.89  .0732    116    1    100.0    5 
26/09/17  13:40   23.6   23.6   23.4    71   18.0   5.0    SE   0.42   6.0    SE   23.6   24.6   24.6  1020.9  0.00  0.00   0.000   0.018   24.8    60   16.5   25.3  10.88  .0732    117    1    100.0    5 
26/09/17  13:45   23.7   23.7   23.6    70   17.9   4.0    SE   0.33   6.0    SE   23.7   24.6   24.6  1020.9  0.00  0.00   0.000   0.019   24.9    60   16.6   25.3  10.88  .0732    116    1    100.0    5 
26/09/17  13:50   23.3   23.7   23.3    71   17.8   4.0    SE   0.33   5.0    SE   23.3   24.3   24.3  1020.9  0.00  0.00   0.000   0.017   24.9    60   16.6   25.4  10.87  .0731    117    1    100.0    5 
26/09/17  13:55   23.4   23.4   23.3    71   17.9   4.0    SE   0.33   6.0    SE   23.4   24.4   24.4  1020.9  0.00  0.00   0.000   0.018   25.0    60   16.7   25.4  10.87  .0731    116    1    100.0    5 
26/09/17  14:00   23.7   23.7   23.4    71   18.1   4.0    SE   0.33   6.0    SE   23.7   24.6   24.6  1020.9  0.00  0.00   0.000   0.019   25.1    60   16.7   25.5  10.87  .0731    117    1    100.0    5 
26/09/17  14:05   23.8   23.8   23.7    69   17.7   4.0    SE   0.33   6.0    SE   23.8   24.7   24.7  1020.9  0.00  0.00   0.000   0.019   25.1    60   16.8   25.6  10.86  .0731    115    1    100.0    5 
26/09/17  14:10   23.7   23.8   23.7    70   17.9   4.0    SE   0.33   6.0    SE   23.7   24.7   24.7  1020.9  0.00  0.00   0.000   0.019   25.2    60   16.9   25.6  10.86  .0731    117    1    100.0    5 
26/09/17  14:15   23.8   23.8   23.8    70   18.0   4.0    SE   0.33   6.0    SE   23.8   24.8   24.8  1020.9  0.00  0.00   0.000   0.019   25.2    60   16.9   25.7  10.85  .0730    116    1    100.0    5 
26/09/17  14:20   24.1   24.1   23.9    69   18.0   4.0    SE   0.33   6.0    SE   24.1   24.9   24.9  1020.9  0.00  0.00   0.000   0.020   25.3    60   17.0   25.8  10.85  .0730    115    1    100.0    5 
26/09/17  14:25   24.2   24.2   24.1    68   17.9   5.0    SE   0.42   7.0    SE   24.2   25.1   25.1  1020.9  0.00  0.00   0.000   0.020   25.3    60   17.0   25.8  10.85  .0730    117    1    100.0    5 
26/09/17  14:30   24.3   24.3   24.3    68   18.0   5.0    SE   0.42   7.0    SE   24.3   25.2   25.2  1020.9  0.00  0.00   0.000   0.021   25.4    60   17.1   25.9  10.84  .0730    117    1    100.0    5 
26/09/17  14:35   24.4   24.4   24.3    67   17.9   5.0    SE   0.42   6.0    SE   24.4   25.2   25.2  1021.0  0.00  0.00   0.000   0.021   25.5    60   17.2   26.0  10.83  .0730    117    1    100.0    5 
26/09/17  14:40   24.4   24.4   24.4    67   17.9   5.0    SE   0.42   6.0    SE   24.4   25.2   25.2  1021.0  0.00  0.00   0.000   0.021   25.5    60   17.2   26.0  10.83  .0730    117    1    100.0    5 
26/09/17  14:45   24.3   24.4   24.3    68   18.0   4.0    SE   0.33   6.0    SE   24.3   25.2   25.2  1020.9  0.00  0.00   0.000   0.021   25.6    60   17.3   26.1  10.83  .0729    116    1    100.0    5 
26/09/17  14:50   23.6   24.3   23.6    67   17.1   5.0    SE   0.42   6.0    SE   23.6   24.4   24.4  1021.0  0.00  0.00   0.000   0.018   25.7    60   17.3   26.2  10.82  .0729    116    1    100.0    5 
26/09/17  14:55   22.9   23.6   22.9    70   17.1   5.0    SE   0.42   6.0    SE   22.9   23.6   23.6  1021.0  0.00  0.00   0.000   0.016   25.7    60   17.4   26.3  10.82  .0729    116    1    100.0    5 
26/09/17  15:00   22.4   22.8   22.4    72   17.1   5.0    SE   0.42   6.0    SE   22.4   23.0   23.0  1020.9  0.00  0.00   0.000   0.014   25.8    60   17.4   26.3  10.81  .0729    117    1    100.0    5 
26/09/17  15:05   22.1   22.4   22.1    72   16.8   4.0    SE   0.33   6.0    SE   22.1   22.6   22.6  1021.0  0.00  0.00   0.000   0.013   25.8    60   17.5   26.4  10.81  .0729    117    1    100.0    5 
26/09/17  15:10   21.4   22.1   21.4    73   16.4   4.0    SE   0.33   6.0    SE   21.4   21.7   21.7  1021.0  0.00  0.00   0.000   0.011   25.9    60   17.5   26.4  10.81  .0728    117    1    100.0    5 
26/09/17  15:15   20.8   21.4   20.8    75   16.2   4.0    SE   0.33   7.0    SE   20.8   21.2   21.2  1020.9  0.00  0.00   0.000   0.008   25.9    60   17.5   26.4  10.81  .0728    118    1    100.0    5 
26/09/17  15:20   20.7   20.8   20.7    77   16.5   4.0    SE   0.33   6.0    SE   20.7   21.3   21.3  1020.9  0.00  0.00   0.000   0.008   25.9    60   17.6   26.5  10.80  .0728    116    1    100.0    5 
26/09/17  15:25   20.7   20.7   20.6    77   16.5   4.0    SE   0.33   6.0    SE   20.7   21.3   21.3  1020.9  0.00  0.00   0.000   0.008   25.9    60   17.6   26.5  10.80  .0728    116    1    100.0    5 
26/09/17  15:30   20.7   20.7   20.7    78   16.7   4.0    SE   0.33   6.0    SE   20.7   21.3   21.3  1020.9  0.00  0.00   0.000   0.008   25.9    59   17.3   26.4  10.60  .0728    115    1    100.0    5 
26/09/17  15:35   20.8   20.8   20.7    78   16.8   4.0    SE   0.33   6.0    SE   20.8   21.4   21.4  1020.8  0.00  0.00   0.000   0.008   26.0    59   17.4   26.6  10.60  .0728    117    1    100.0    5 
26/09/17  15:40   21.0   21.0   20.8    77   16.8   5.0    SE   0.42   7.0    SE   21.0   21.5   21.5  1020.8  0.00  0.00   0.000   0.009   26.0    59   17.4   26.6  10.60  .0728    116    1    100.0    5 
26/09/17  15:45   21.2   21.2   21.1    77   17.0   4.0    SE   0.33   6.0    SE   21.2   21.7   21.7  1020.8  0.00  0.00   0.000   0.010   26.0    59   17.4   26.6  10.60  .0728    116    1    100.0    5 
26/09/17  15:50   21.4   21.4   21.2    77   17.2   4.0    SE   0.33   5.0    SE   21.4   21.9   21.9  1020.8  0.00  0.00   0.000   0.011   26.1    59   17.4   26.6  10.59  .0728    117    1    100.0    5 
26/09/17  15:55   21.6   21.6   21.4    76   17.1   5.0    SE   0.42   7.0    SE   21.6   22.1   22.1  1020.7  0.00  0.00   0.000   0.011   26.1    59   17.4   26.6  10.59  .0728    116    1    100.0    5 
26/09/17  16:00   21.4   21.6   21.4    74   16.6   5.0    SE   0.42   7.0    SE   21.4   21.7   21.7  1020.7  0.00  0.00   0.000   0.011   26.1    59   17.4   26.6  10.59  .0728    117    1    100.0    5 
26/09/17  16:05   21.2   21.4   21.2    75   16.6   4.0    SE   0.33   6.0    SE   21.2   21.5   21.5  1020.7  0.00  0.00   0.000   0.010   26.1    59   17.4   26.6  10.59  .0728    116    1    100.0    5 
26/09/17  16:10   21.1   21.2   21.1    76   16.7   4.0    SE   0.33   6.0    SE   21.1   21.4   21.4  1020.7  0.00  0.00   0.000   0.009   26.1    59   17.4   26.6  10.59  .0728    117    1    100.0    5 
26/09/17  16:15   20.8   21.1   20.8    76   16.4   5.0    SE   0.42   6.0    SE   20.8   21.3   21.3  1020.6  0.00  0.00   0.000   0.009   26.1    59   17.4   26.6  10.59  .0728    117    1    100.0    5 
26/09/17  16:20   20.7   20.8   20.7    77   16.5   5.0    SE   0.42   6.0    SE   20.7   21.3   21.3  1020.5  0.00  0.00   0.000   0.008   26.1    59   17.4   26.6  10.59  .0728    117    1    100.0    5 
26/09/17  16:25   20.6   20.7   20.6    77   16.4   5.0    SE   0.42   6.0    SE   20.6   21.2   21.2  1020.5  0.00  0.00   0.000   0.008   26.1    59   17.5   26.7  10.59  .0728    116    1    100.0    5 
26/09/17  16:30   20.3   20.6   20.3    77   16.1   4.0    SE   0.33   6.0    SE   20.3   20.9   20.9  1020.6  0.00  0.00   0.000   0.007   26.1    59   17.4   26.6  10.59  .0728    117    1    100.0    5 
26/09/17  16:35   20.1   20.3   20.1    78   16.1   4.0    SE   0.33   6.0    SE   20.1   20.7   20.7  1020.6  0.00  0.00   0.000   0.006   26.1    59   17.5   26.7  10.59  .0728    116    1    100.0    5 
26/09/17  16:40   19.8   20.1   19.8    78   15.9   3.0    SE   0.25   6.0    SE   19.8   20.4   20.4  1020.6  0.00  0.00   0.000   0.005   26.1    59   17.5   26.7  10.59  .0728    116    1    100.0    5 
26/09/17  16:45   19.7   19.8   19.7    79   15.9   3.0    SE   0.25   5.0    SE   19.7   20.3   20.3  1020.6  0.00  0.00   0.000   0.005   26.1    59   17.5   26.7  10.59  .0728    116    1    100.0    5 
26/09/17  16:50   19.5   19.7   19.5    79   15.8   4.0    SE   0.33   6.0    SE   19.5   20.1   20.1  1020.6  0.00  0.00   0.000   0.004   26.1    59   17.5   26.7  10.59  .0728    117    1    100.0    5 
26/09/17  16:55   19.3   19.5   19.3    80   15.8   3.0    SE   0.25   5.0    SE   19.3   19.9   19.9  1020.7  0.00  0.00   0.000   0.003   26.1    59   17.5   26.7  10.59  .0728    116    1    100.0    5 
26/09/17  17:00   19.3   19.3   19.3    80   15.7   3.0    SE   0.25   5.0    SE   19.3   19.8   19.8  1020.7  0.00  0.00   0.000   0.003   26.1    59   17.5   26.7  10.59  .0728    116    1    100.0    5 
26/09/17  17:05   19.2   19.3   19.2    81   15.8   3.0    SE   0.25   5.0    SE   19.2   19.7   19.7  1020.7  0.00  0.00   0.000   0.003   26.1    59   17.5   26.7  10.59  .0728    116    1    100.0    5 
26/09/17  17:10   19.1   19.2   19.1    81   15.7   2.0    SE   0.17   4.0    SE   19.1   19.6   19.6  1020.7  0.00  0.00   0.000   0.003   26.1    59   17.5   26.7  10.59  .0728    117    1    100.0    5 
26/09/17  17:15   18.9   19.1   18.9    81   15.6   3.0    SE   0.25   5.0    SE   18.9   19.4   19.4  1020.8  0.00  0.00   0.000   0.002   26.1    59   17.5   26.7  10.59  .0728    117    1    100.0    5 
26/09/17  17:20   18.8   18.9   18.8    82   15.7   3.0    SE   0.25   4.0    SE   18.8   19.3   19.3  1020.8  0.00  0.00   0.000   0.002   26.1    59   17.5   26.7  10.59  .0728    116    1    100.0    5 
26/09/17  17:25   18.8   18.8   18.8    82   15.6   3.0    SE   0.25   5.0    SE   18.8   19.3   19.3  1020.8  0.00  0.00   0.000   0.002   26.1    59   17.5   26.7  10.59  .0728    117    1    100.0    5 
26/09/17  17:30   18.7   18.8   18.7    83   15.8   3.0    SE   0.25   5.0    SE   18.7   19.2   19.2  1020.8  0.00  0.00   0.000   0.001   26.1    58   17.2   26.6  10.39  .0728    117    1    100.0    5 
26/09/17  17:35   18.7   18.8   18.7    83   15.8   3.0    SE   0.25   5.0    SE   18.7   19.2   19.2  1020.8  0.00  0.00   0.000   0.001   26.1    58   17.2   26.6  10.39  .0728    117    1    100.0    5 
26/09/17  17:40   18.7   18.7   18.7    83   15.8   3.0    SE   0.25   5.0    SE   18.7   19.2   19.2  1020.8  0.00  0.00   0.000   0.001   26.1    58   17.2   26.6  10.39  .0728    116    1    100.0    5 
26/09/17  17:45   18.6   18.7   18.6    83   15.7   3.0    SE   0.25   5.0    SE   18.6   19.1   19.1  1020.8  0.00  0.00   0.000   0.001   26.1    58   17.2   26.6  10.39  .0728    117    1    100.0    5 
26/09/17  17:50   18.5   18.6   18.5    84   15.7   3.0    SE   0.25   4.0    SE   18.5   18.9   18.9  1020.8  0.00  0.00   0.000   0.001   26.1    58   17.2   26.6  10.39  .0728    114    1    100.0    5 
26/09/17  17:55   18.3   18.5   18.3    84   15.6   4.0    SE   0.33   5.0    SE   18.3   18.8   18.8  1020.9  0.00  0.00   0.000   0.000   26.1    58   17.2   26.6  10.39  .0728    117    1    100.0    5 
26/09/17  18:00   18.2   18.3   18.2    84   15.5   3.0    SE   0.25   5.0    SE   18.2   18.6   18.6  1020.9  0.00  0.00   0.000   0.000   26.1    58   17.2   26.6  10.39  .0728    116    1    100.0    5 
26/09/17  18:05   18.1   18.2   18.1    84   15.4   4.0    SE   0.33   5.0    SE   18.1   18.5   18.5  1020.9  0.00  0.00   0.001   0.000   26.1    58   17.2   26.6  10.39  .0728    116    1    100.0    5 
26/09/17  18:10   18.0   18.1   18.0    84   15.3   3.0    SE   0.25   4.0    SE   18.0   18.4   18.4  1020.9  0.00  0.00   0.001   0.000   26.1    58   17.2   26.6  10.39  .0728    117    1    100.0    5 
26/09/17  18:15   17.9   18.0   17.9    85   15.4   3.0    SE   0.25   4.0    SE   17.9   18.3   18.3  1020.9  0.00  0.00   0.001   0.000   26.1    58   17.1   26.6  10.39  .0728    116    1    100.0    5 
26/09/17  18:20   17.9   17.9   17.9    85   15.3   3.0    SE   0.25   4.0    SE   17.9   18.2   18.2  1021.0  0.00  0.00   0.002   0.000   26.1    58   17.1   26.6  10.39  .0728    118    1    100.0    5 
26/09/17  18:25   17.8   17.9   17.8    86   15.5   3.0    SE   0.25   5.0    SE   17.8   18.2   18.2  1020.9  0.00  0.00   0.002   0.000   26.1    58   17.1   26.6  10.39  .0728    115    1    100.0    5 
26/09/17  18:30   17.8   17.8   17.8    86   15.5   4.0    SE   0.33   5.0    SE   17.8   18.2   18.2  1020.9  0.00  0.00   0.002   0.000   26.0    58   17.1   26.5  10.40  .0728    116    1    100.0    5 
26/09/17  18:35   17.8   17.8   17.8    86   15.4   3.0    SE   0.25   5.0    SE   17.8   18.1   18.1  1020.9  0.00  0.00   0.002   0.000   26.0    58   17.1   26.5  10.40  .0728    116    1    100.0    5 
26/09/17  18:40   17.7   17.8   17.7    86   15.3   3.0    SE   0.25   4.0    SE   17.7   18.0   18.0  1021.0  0.00  0.00   0.002   0.000   26.0    58   17.1   26.5  10.40  .0728    116    1    100.0    5 
26/09/17  18:45   17.6   17.7   17.6    86   15.2   3.0    SE   0.25   4.0    SE   17.6   17.9   17.9  1021.0  0.00  0.00   0.003   0.000   26.0    58   17.1   26.5  10.40  .0728    116    1    100.0    5 
26/09/17  18:50   17.5   17.6   17.5    86   15.1   2.0    SE   0.17   4.0    SE   17.5   17.8   17.8  1021.0  0.00  0.00   0.003   0.000   26.0    58   17.1   26.5  10.40  .0729    116    1    100.0    5 
26/09/17  18:55   17.4   17.5   17.4    87   15.3   2.0    SE   0.17   4.0    SE   17.4   17.8   17.8  1021.0  0.00  0.00   0.003   0.000   26.0    58   17.1   26.5  10.40  .0729    116    1    100.0    5 
26/09/17  19:00   17.4   17.4   17.4    87   15.3   2.0    SE   0.17   5.0    SE   17.4   17.8   17.8  1021.1  0.00  0.00   0.003   0.000   25.9    58   17.0   26.4  10.40  .0729    116    1    100.0    5 
26/09/17  19:05   17.3   17.4   17.3    87   15.1   4.0    SE   0.33   5.0    SE   17.3   17.7   17.7  1021.1  0.00  0.00   0.003   0.000   25.9    58   17.0   26.4  10.40  .0729    116    1    100.0    5 
26/09/17  19:10   17.3   17.3   17.3    87   15.1   4.0    SE   0.33   5.0    SE   17.3   17.6   17.6  1021.1  0.00  0.00   0.004   0.000   25.9    58   17.0   26.4  10.40  .0729    117    1    100.0    5 
26/09/17  19:15   17.2   17.3   17.2    88   15.2   4.0    SE   0.33   6.0    SE   17.2   17.6   17.6  1021.1  0.00  0.00   0.004   0.000   25.9    58   17.0   26.3  10.41  .0729    117    1    100.0    5 
26/09/17  19:20   17.2   17.2   17.2    88   15.2   4.0    SE   0.33   6.0    SE   17.2   17.5   17.5  1021.2  0.00  0.00   0.004   0.000   25.9    58   17.0   26.3  10.41  .0729    116    1    100.0    5 
26/09/17  19:25   17.1   17.2   17.1    88   15.1   5.0    SE   0.42   6.0    SE   17.1   17.4   17.4  1021.1  0.00  0.00   0.004   0.000   25.9    58   17.0   26.3  10.41  .0729    118    1    100.0    5 
26/09/17  19:30   17.1   17.2   17.1    88   15.1   5.0    SE   0.42   6.0    SE   17.1   17.4   17.4  1021.1  0.00  0.00   0.004   0.000   25.9    58   17.0   26.3  10.41  .0729    117    1    100.0    5 
26/09/17  19:35   17.1   17.1   17.1    88   15.1   3.0    SE   0.25   6.0    SE   17.1   17.4   17.4  1021.1  0.00  0.00   0.004   0.000   25.9    58   17.0   26.3  10.41  .0729    116    1    100.0    5 
26/09/17  19:40   17.1   17.1   17.1    89   15.3   2.0    SE   0.17   6.0    SE   17.1   17.4   17.4  1021.1  0.00  0.00   0.004   0.000   25.8    57   16.7   26.2  10.21  .0729    116    1    100.0    5 
26/09/17  19:45   17.1   17.1   17.1    89   15.3   2.0    SE   0.17   6.0    SE   17.1   17.4   17.4  1021.1  0.00  0.00   0.004   0.000   25.8    57   16.6   26.2  10.21  .0730    117    1    100.0    5 
26/09/17  19:50   17.1   17.1   17.1    89   15.2   2.0    SE   0.17   6.0    SE   17.1   17.4   17.4  1021.1  0.00  0.00   0.004   0.000   25.8    57   16.6   26.2  10.21  .0730    115    1    100.0    5 
26/09/17  19:55   17.1   17.1   17.1    89   15.2   3.0    SE   0.25   6.0    SE   17.1   17.4   17.4  1021.2  0.00  0.00   0.004   0.000   25.7    57   16.6   26.1  10.22  .0730    116    1    100.0    5 
26/09/17  20:00   17.1   17.1   17.1    89   15.2   2.0    SE   0.17   6.0    SE   17.1   17.4   17.4  1021.2  0.00  0.00   0.004   0.000   25.7    57   16.6   26.1  10.22  .0730    116    1    100.0    5 
26/09/17  20:05   17.1   17.1   17.0    90   15.4   2.0    SE   0.17   4.0    SE   17.1   17.4   17.4  1021.3  0.00  0.00   0.004   0.000   25.7    57   16.5   26.1  10.22  .0730    116    1    100.0    5 
26/09/17  20:10   17.0   17.1   17.0    90   15.3   2.0    SE   0.17   5.0    SE   17.0   17.3   17.3  1021.3  0.00  0.00   0.005   0.000   25.7    57   16.5   26.1  10.22  .0730    117    1    100.0    5 
26/09/17  20:15   17.0   17.0   17.0    90   15.3   3.0    SE   0.25   7.0   ESE   17.0   17.3   17.3  1021.2  0.00  0.00   0.005   0.000   25.7    57   16.5   26.1  10.22  .0730    117    1    100.0    5 
26/09/17  20:20   16.9   17.0   16.9    90   15.3   3.0   ESE   0.25   6.0   ESE   16.9   17.3   17.3  1021.2  0.00  0.00   0.005   0.000   25.6    57   16.5   26.0  10.23  .0730    117    1    100.0    5 
26/09/17  20:25   16.9   17.0   16.9    90   15.3   2.0   ESE   0.17   6.0   ESE   16.9   17.3   17.3  1021.2  0.00  0.00   0.005   0.000   25.6    57   16.5   26.0  10.23  .0730    116    1    100.0    5 
26/09/17  20:30   16.9   16.9   16.9    90   15.2   3.0   ESE   0.25   5.0   ESE   16.9   17.2   17.2  1021.2  0.00  0.00   0.005   0.000   25.6    58   16.7   25.9  10.43  .0730    117    1    100.0    5 
26/09/17  20:35   16.9   16.9   16.9    90   15.2   3.0   ESE   0.25   7.0     E   16.9   17.2   17.2  1021.2  0.00  0.00   0.005   0.000   25.6    58   16.7   25.9  10.43  .0730    117    1    100.0    5 
26/09/17  20:40   16.8   16.9   16.8    90   15.2   3.0     E   0.25   5.0     E   16.8   17.2   17.2  1021.3  0.00  0.00   0.005   0.000   25.5    58   16.6   25.9  10.43  .0730    117    1    100.0    5 
26/09/17  20:45   16.8   16.9   16.8    90   15.2   3.0     E   0.25   7.0     E   16.8   17.2   17.2  1021.3  0.00  0.00   0.005   0.000   25.5    58   16.6   25.9  10.43  .0730    117    1    100.0    5 
26/09/17  20:50   16.8   16.8   16.8    90   15.2   5.0     E   0.42   9.0     E   16.8   17.2   17.2  1021.2  0.00  0.00   0.005   0.000   25.5    58   16.6   25.9  10.43  .0730    116    1    100.0    5 
26/09/17  20:55   16.8   16.8   16.8    91   15.4   4.0     E   0.33   7.0     E   16.8   17.2   17.2  1021.3  0.00  0.00   0.005   0.000   25.5    58   16.6   25.9  10.43  .0730    116    1    100.0    5 
26/09/17  21:00   16.8   16.8   16.8    91   15.4   2.0     E   0.17   5.0     E   16.8   17.2   17.2  1021.3  0.00  0.00   0.005   0.000   25.5    58   16.6   25.9  10.43  .0730    116    1    100.0    5 
26/09/17  21:05   16.8   16.8   16.8    91   15.4   2.0     E   0.17   5.0     E   16.8   17.2   17.2  1021.3  0.00  0.00   0.005   0.000   25.4    58   16.6   25.8  10.44  .0731    116    1    100.0    5 
26/09/17  21:10   16.8   16.8   16.8    91   15.4   2.0     E   0.17   5.0     E   16.8   17.2   17.2  1021.3  0.00  0.00   0.005   0.000   25.4    58   16.5   25.8  10.44  .0731    117    1    100.0    5 
26/09/17  21:15   16.8   16.8   16.8    91   15.4   2.0     E   0.17   5.0     E   16.8   17.2   17.2  1021.3  0.00  0.00   0.005   0.000   25.4    58   16.5   25.8  10.44  .0731    117    1    100.0    5 
26/09/17  21:20   16.8   16.8   16.8    91   15.3   2.0     E   0.17   4.0     E   16.8   17.1   17.1  1021.3  0.00  0.00   0.005   0.000   25.4    58   16.5   25.8  10.44  .0731    117    1    100.0    5 
26/09/17  21:25   16.8   16.8   16.8    91   15.3   3.0     E   0.25   5.0     E   16.8   17.1   17.1  1021.4  0.00  0.00   0.005   0.000   25.4    58   16.5   25.8  10.44  .0731    117    1    100.0    5 
26/09/17  21:30   16.7   16.8   16.7    91   15.2   2.0     E   0.17   4.0     E   16.7   17.1   17.1  1021.4  0.00  0.00   0.006   0.000   25.3    58   16.5   25.7  10.45  .0731    116    1    100.0    5 
26/09/17  21:35   16.7   16.7   16.7    91   15.2   2.0     E   0.17   5.0     E   16.7   16.9   16.9  1021.4  0.00  0.00   0.006   0.000   25.3    58   16.5   25.7  10.45  .0731    116    1    100.0    5 
26/09/17  21:40   16.7   16.7   16.7    91   15.2   3.0     E   0.25   7.0     E   16.7   16.9   16.9  1021.4  0.00  0.00   0.006   0.000   25.3    58   16.4   25.7  10.45  .0731    117    1    100.0    5 
26/09/17  21:45   16.7   16.7   16.7    91   15.2   5.0     E   0.42   8.0     E   16.7   16.9   16.9  1021.3  0.00  0.00   0.006   0.000   25.3    58   16.4   25.7  10.45  .0731    117    1    100.0    5 
26/09/17  21:50   16.6   16.7   16.6    91   15.1   5.0     E   0.42   8.0     E   16.6   16.9   16.9  1021.3  0.00  0.00   0.006   0.000   25.3    58   16.4   25.7  10.45  .0731    117    1    100.0    5 
26/09/17  21:55   16.6   16.6   16.6    91   15.1   4.0     E   0.33   9.0     E   16.6   16.9   16.9  1021.3  0.00  0.00   0.006   0.000   25.3    58   16.4   25.7  10.45  .0731    117    1    100.0    5 
26/09/17  22:00   16.6   16.6   16.6    91   15.1   5.0     E   0.42   9.0     E   16.6   16.8   16.8  1021.2  0.00  0.00   0.006   0.000   25.2    58   16.4   25.6  10.45  .0731    115    1    100.0    5 
26/09/17  22:05   16.5   16.6   16.5    91   15.0   6.0     E   0.50   9.0     E   16.4   16.8   16.7  1021.2  0.00  0.00   0.006   0.000   25.2    58   16.4   25.6  10.45  .0731    117    1    100.0    5 
26/09/17  22:10   16.4   16.5   16.4    91   14.9   7.0     E   0.58  10.0     E   16.2   16.7   16.4  1021.1  0.00  0.00   0.007   0.000   25.2    58   16.4   25.6  10.45  .0731    117    1    100.0    5 
26/09/17  22:15   16.3   16.4   16.3    91   14.9   7.0     E   0.58  10.0     E   16.1   16.6   16.3  1021.1  0.00  0.00   0.007   0.000   25.2    58   16.3   25.5  10.46  .0731    116    1    100.0    5 
26/09/17  22:20   16.3   16.3   16.3    91   14.8   7.0     E   0.58  11.0     E   16.0   16.6   16.3  1021.1  0.00  0.00   0.007   0.000   25.2    58   16.3   25.5  10.46  .0731    116    1    100.0    5 
26/09/17  22:25   16.2   16.3   16.2    91   14.8   7.0     E   0.58  10.0     E   15.9   16.4   16.2  1021.1  0.00  0.00   0.007   0.000   25.2    58   16.3   25.5  10.46  .0731    116    1    100.0    5 
26/09/17  22:30   16.2   16.2   16.2    92   14.9   6.0     E   0.50   9.0     E   16.1   16.4   16.3  1021.1  0.00  0.00   0.008   0.000   25.2    58   16.3   25.5  10.46  .0731    116    1    100.0    5 
26/09/17  22:35   16.1   16.2   16.1    92   14.8   5.0     E   0.42   8.0     E   16.1   16.3   16.3  1021.2  0.00  0.00   0.008   0.000   25.2    58   16.3   25.5  10.46  .0731    117    1    100.0    5 
26/09/17  22:40   16.1   16.1   16.1    92   14.8   5.0     E   0.42   8.0     E   16.1   16.3   16.3  1021.2  0.00  0.00   0.008   0.000   25.2    58   16.3   25.5  10.46  .0731    117    1    100.0    5 
115980